<?xml version="1.0" encoding="UTF-8" standalone="no" ?>
<gpx xmlns="http://www.topografix.com/GPX/1/1" xmlns:xsi="http://www.w3.org/2001/XMLSchema-instance" xsi:schemaLocation="http://www.topografix.com/GPX/1/1 http://www.topografix.com/GPX/1/1/gpx.xsd" version="1.1" creator="VisuGPX - https://www.visugpx.com">
  <metadata>
    <name>83-M-Les Arcs sur Argens</name>
    <desc><![CDATA[grp_trc:]]></desc>
  </metadata>
  <trk>
    <name><![CDATA[13 oct. 2021]]></name>
    <cmt><![CDATA[14:15:02]]></cmt>
    <desc><![CDATA[comment ...]]></desc>
    <trkseg>
      <trkpt lat="43.43226" lon="6.50766">
        <ele>29</ele>
        <time>2021-10-13T12:15:03Z</time>
      </trkpt>
      <trkpt lat="43.43226" lon="6.50769">
        <ele>32</ele>
        <time>2021-10-13T12:15:04Z</time>
      </trkpt>
      <trkpt lat="43.43223" lon="6.50759">
        <ele>31</ele>
        <time>2021-10-13T12:15:07Z</time>
      </trkpt>
      <trkpt lat="43.43225" lon="6.50751">
        <ele>29</ele>
        <time>2021-10-13T12:15:14Z</time>
      </trkpt>
      <trkpt lat="43.43223" lon="6.50717">
        <ele>34</ele>
        <time>2021-10-13T12:15:34Z</time>
      </trkpt>
      <trkpt lat="43.43221" lon="6.50709">
        <ele>34</ele>
        <time>2021-10-13T12:15:39Z</time>
      </trkpt>
      <trkpt lat="43.43222" lon="6.50706">
        <ele>34</ele>
        <time>2021-10-13T12:15:41Z</time>
      </trkpt>
      <trkpt lat="43.4322" lon="6.50695">
        <ele>34</ele>
        <time>2021-10-13T12:15:47Z</time>
      </trkpt>
      <trkpt lat="43.43218" lon="6.50687">
        <ele>32</ele>
        <time>2021-10-13T12:15:52Z</time>
      </trkpt>
      <trkpt lat="43.43217" lon="6.50682">
        <ele>32</ele>
        <time>2021-10-13T12:15:57Z</time>
      </trkpt>
      <trkpt lat="43.4321" lon="6.50665">
        <ele>29</ele>
        <time>2021-10-13T12:16:06Z</time>
      </trkpt>
      <trkpt lat="43.43208" lon="6.50661">
        <ele>26</ele>
        <time>2021-10-13T12:16:10Z</time>
      </trkpt>
      <trkpt lat="43.43206" lon="6.50651">
        <ele>24</ele>
        <time>2021-10-13T12:16:16Z</time>
      </trkpt>
      <trkpt lat="43.43203" lon="6.50631">
        <ele>22</ele>
        <time>2021-10-13T12:16:25Z</time>
      </trkpt>
      <trkpt lat="43.43201" lon="6.50618">
        <ele>23</ele>
        <time>2021-10-13T12:16:31Z</time>
      </trkpt>
      <trkpt lat="43.43199" lon="6.50613">
        <ele>24</ele>
        <time>2021-10-13T12:16:33Z</time>
      </trkpt>
      <trkpt lat="43.43191" lon="6.50586">
        <ele>23</ele>
        <time>2021-10-13T12:16:48Z</time>
      </trkpt>
      <trkpt lat="43.43188" lon="6.50581">
        <ele>22</ele>
        <time>2021-10-13T12:16:51Z</time>
      </trkpt>
      <trkpt lat="43.43187" lon="6.50575">
        <ele>22</ele>
        <time>2021-10-13T12:16:55Z</time>
      </trkpt>
      <trkpt lat="43.43185" lon="6.50569">
        <ele>23</ele>
        <time>2021-10-13T12:16:58Z</time>
      </trkpt>
      <trkpt lat="43.43182" lon="6.50558">
        <ele>25</ele>
        <time>2021-10-13T12:17:04Z</time>
      </trkpt>
      <trkpt lat="43.4318" lon="6.50543">
        <ele>25</ele>
        <time>2021-10-13T12:17:13Z</time>
      </trkpt>
      <trkpt lat="43.43179" lon="6.50534">
        <ele>24</ele>
        <time>2021-10-13T12:17:17Z</time>
      </trkpt>
      <trkpt lat="43.43178" lon="6.50521">
        <ele>24</ele>
        <time>2021-10-13T12:17:24Z</time>
      </trkpt>
      <trkpt lat="43.43178" lon="6.50513">
        <ele>23</ele>
        <time>2021-10-13T12:17:28Z</time>
      </trkpt>
      <trkpt lat="43.43175" lon="6.50507">
        <ele>19</ele>
        <time>2021-10-13T12:17:33Z</time>
      </trkpt>
      <trkpt lat="43.43171" lon="6.50494">
        <ele>16</ele>
        <time>2021-10-13T12:17:43Z</time>
      </trkpt>
      <trkpt lat="43.43165" lon="6.50481">
        <ele>14</ele>
        <time>2021-10-13T12:17:51Z</time>
      </trkpt>
      <trkpt lat="43.43163" lon="6.50474">
        <ele>13</ele>
        <time>2021-10-13T12:17:55Z</time>
      </trkpt>
      <trkpt lat="43.4316" lon="6.50467">
        <ele>12</ele>
        <time>2021-10-13T12:17:58Z</time>
      </trkpt>
      <trkpt lat="43.43157" lon="6.50459">
        <ele>12</ele>
        <time>2021-10-13T12:18:03Z</time>
      </trkpt>
      <trkpt lat="43.43146" lon="6.50439">
        <ele>17</ele>
        <time>2021-10-13T12:18:16Z</time>
      </trkpt>
      <trkpt lat="43.43141" lon="6.5043">
        <ele>18</ele>
        <time>2021-10-13T12:18:22Z</time>
      </trkpt>
      <trkpt lat="43.43132" lon="6.50413">
        <ele>20</ele>
        <time>2021-10-13T12:18:33Z</time>
      </trkpt>
      <trkpt lat="43.43129" lon="6.50407">
        <ele>20</ele>
        <time>2021-10-13T12:18:36Z</time>
      </trkpt>
      <trkpt lat="43.43129" lon="6.50401">
        <ele>20</ele>
        <time>2021-10-13T12:18:39Z</time>
      </trkpt>
      <trkpt lat="43.43128" lon="6.50394">
        <ele>21</ele>
        <time>2021-10-13T12:18:43Z</time>
      </trkpt>
      <trkpt lat="43.43125" lon="6.50391">
        <ele>21</ele>
        <time>2021-10-13T12:18:46Z</time>
      </trkpt>
      <trkpt lat="43.43115" lon="6.50384">
        <ele>21</ele>
        <time>2021-10-13T12:18:53Z</time>
      </trkpt>
      <trkpt lat="43.43111" lon="6.50381">
        <ele>20</ele>
        <time>2021-10-13T12:18:56Z</time>
      </trkpt>
      <trkpt lat="43.43104" lon="6.50373">
        <ele>20</ele>
        <time>2021-10-13T12:19:02Z</time>
      </trkpt>
      <trkpt lat="43.43101" lon="6.5037">
        <ele>20</ele>
        <time>2021-10-13T12:19:05Z</time>
      </trkpt>
      <trkpt lat="43.43098" lon="6.50365">
        <ele>18</ele>
        <time>2021-10-13T12:19:08Z</time>
      </trkpt>
      <trkpt lat="43.43088" lon="6.50357">
        <ele>17</ele>
        <time>2021-10-13T12:19:15Z</time>
      </trkpt>
      <trkpt lat="43.43085" lon="6.50352">
        <ele>17</ele>
        <time>2021-10-13T12:19:19Z</time>
      </trkpt>
      <trkpt lat="43.43082" lon="6.50333">
        <ele>17</ele>
        <time>2021-10-13T12:19:27Z</time>
      </trkpt>
      <trkpt lat="43.43076" lon="6.50331">
        <ele>17</ele>
        <time>2021-10-13T12:19:33Z</time>
      </trkpt>
      <trkpt lat="43.43073" lon="6.50322">
        <ele>16</ele>
        <time>2021-10-13T12:19:39Z</time>
      </trkpt>
      <trkpt lat="43.43076" lon="6.50314">
        <ele>16</ele>
        <time>2021-10-13T12:19:43Z</time>
      </trkpt>
      <trkpt lat="43.43074" lon="6.50306">
        <ele>17</ele>
        <time>2021-10-13T12:19:48Z</time>
      </trkpt>
      <trkpt lat="43.43072" lon="6.50298">
        <ele>17</ele>
        <time>2021-10-13T12:19:55Z</time>
      </trkpt>
      <trkpt lat="43.43069" lon="6.50296">
        <ele>22</ele>
        <time>2021-10-13T12:21:31Z</time>
      </trkpt>
      <trkpt lat="43.43065" lon="6.50294">
        <ele>22</ele>
        <time>2021-10-13T12:21:41Z</time>
      </trkpt>
      <trkpt lat="43.43072" lon="6.50293">
        <ele>23</ele>
        <time>2021-10-13T12:22:18Z</time>
      </trkpt>
      <trkpt lat="43.43073" lon="6.50296">
        <ele>23</ele>
        <time>2021-10-13T12:23:49Z</time>
      </trkpt>
      <trkpt lat="43.43069" lon="6.50296">
        <ele>23</ele>
        <time>2021-10-13T12:23:59Z</time>
      </trkpt>
      <trkpt lat="43.43064" lon="6.503">
        <ele>23</ele>
        <time>2021-10-13T12:24:07Z</time>
      </trkpt>
      <trkpt lat="43.4306" lon="6.50301">
        <ele>23</ele>
        <time>2021-10-13T12:24:11Z</time>
      </trkpt>
      <trkpt lat="43.43055" lon="6.50298">
        <ele>23</ele>
        <time>2021-10-13T12:24:14Z</time>
      </trkpt>
      <trkpt lat="43.43051" lon="6.503">
        <ele>22</ele>
        <time>2021-10-13T12:24:18Z</time>
      </trkpt>
      <trkpt lat="43.43037" lon="6.50297">
        <ele>18</ele>
        <time>2021-10-13T12:24:26Z</time>
      </trkpt>
      <trkpt lat="43.43029" lon="6.50292">
        <ele>17</ele>
        <time>2021-10-13T12:24:32Z</time>
      </trkpt>
      <trkpt lat="43.42995" lon="6.50277">
        <ele>15</ele>
        <time>2021-10-13T12:24:56Z</time>
      </trkpt>
      <trkpt lat="43.42986" lon="6.50274">
        <ele>15</ele>
        <time>2021-10-13T12:25:02Z</time>
      </trkpt>
      <trkpt lat="43.42982" lon="6.50272">
        <ele>14</ele>
        <time>2021-10-13T12:25:05Z</time>
      </trkpt>
      <trkpt lat="43.42971" lon="6.50272">
        <ele>14</ele>
        <time>2021-10-13T12:25:11Z</time>
      </trkpt>
      <trkpt lat="43.42962" lon="6.5027">
        <ele>14</ele>
        <time>2021-10-13T12:25:16Z</time>
      </trkpt>
      <trkpt lat="43.42958" lon="6.50269">
        <ele>14</ele>
        <time>2021-10-13T12:25:18Z</time>
      </trkpt>
      <trkpt lat="43.42949" lon="6.50262">
        <ele>13</ele>
        <time>2021-10-13T12:25:24Z</time>
      </trkpt>
      <trkpt lat="43.42942" lon="6.50259">
        <ele>12</ele>
        <time>2021-10-13T12:25:29Z</time>
      </trkpt>
      <trkpt lat="43.42939" lon="6.50257">
        <ele>11</ele>
        <time>2021-10-13T12:25:31Z</time>
      </trkpt>
      <trkpt lat="43.42935" lon="6.50254">
        <ele>11</ele>
        <time>2021-10-13T12:25:33Z</time>
      </trkpt>
      <trkpt lat="43.42924" lon="6.50249">
        <ele>11</ele>
        <time>2021-10-13T12:25:40Z</time>
      </trkpt>
      <trkpt lat="43.42908" lon="6.50236">
        <ele>12</ele>
        <time>2021-10-13T12:25:51Z</time>
      </trkpt>
      <trkpt lat="43.429" lon="6.50225">
        <ele>13</ele>
        <time>2021-10-13T12:25:59Z</time>
      </trkpt>
      <trkpt lat="43.42883" lon="6.50215">
        <ele>14</ele>
        <time>2021-10-13T12:26:09Z</time>
      </trkpt>
      <trkpt lat="43.42874" lon="6.50206">
        <ele>15</ele>
        <time>2021-10-13T12:26:15Z</time>
      </trkpt>
      <trkpt lat="43.42869" lon="6.502">
        <ele>16</ele>
        <time>2021-10-13T12:26:19Z</time>
      </trkpt>
      <trkpt lat="43.42865" lon="6.50191">
        <ele>17</ele>
        <time>2021-10-13T12:26:24Z</time>
      </trkpt>
      <trkpt lat="43.42863" lon="6.50188">
        <ele>18</ele>
        <time>2021-10-13T12:26:26Z</time>
      </trkpt>
      <trkpt lat="43.42861" lon="6.50185">
        <ele>18</ele>
        <time>2021-10-13T12:26:28Z</time>
      </trkpt>
      <trkpt lat="43.42857" lon="6.50176">
        <ele>19</ele>
        <time>2021-10-13T12:26:33Z</time>
      </trkpt>
      <trkpt lat="43.42842" lon="6.50141">
        <ele>25</ele>
        <time>2021-10-13T12:26:51Z</time>
      </trkpt>
      <trkpt lat="43.42839" lon="6.50132">
        <ele>25</ele>
        <time>2021-10-13T12:26:55Z</time>
      </trkpt>
      <trkpt lat="43.42837" lon="6.50127">
        <ele>25</ele>
        <time>2021-10-13T12:26:57Z</time>
      </trkpt>
      <trkpt lat="43.42833" lon="6.50117">
        <ele>26</ele>
        <time>2021-10-13T12:27:01Z</time>
      </trkpt>
      <trkpt lat="43.42831" lon="6.50112">
        <ele>27</ele>
        <time>2021-10-13T12:27:03Z</time>
      </trkpt>
      <trkpt lat="43.42826" lon="6.50077">
        <ele>26</ele>
        <time>2021-10-13T12:27:19Z</time>
      </trkpt>
      <trkpt lat="43.42825" lon="6.50072">
        <ele>27</ele>
        <time>2021-10-13T12:27:21Z</time>
      </trkpt>
      <trkpt lat="43.42824" lon="6.50065">
        <ele>27</ele>
        <time>2021-10-13T12:27:24Z</time>
      </trkpt>
      <trkpt lat="43.42823" lon="6.50045">
        <ele>26</ele>
        <time>2021-10-13T12:27:35Z</time>
      </trkpt>
      <trkpt lat="43.42821" lon="6.50021">
        <ele>27</ele>
        <time>2021-10-13T12:27:50Z</time>
      </trkpt>
      <trkpt lat="43.42824" lon="6.50004">
        <ele>28</ele>
        <time>2021-10-13T12:27:57Z</time>
      </trkpt>
      <trkpt lat="43.42834" lon="6.49978">
        <ele>26</ele>
        <time>2021-10-13T12:28:10Z</time>
      </trkpt>
      <trkpt lat="43.42835" lon="6.49973">
        <ele>26</ele>
        <time>2021-10-13T12:28:13Z</time>
      </trkpt>
      <trkpt lat="43.42835" lon="6.49968">
        <ele>26</ele>
        <time>2021-10-13T12:28:16Z</time>
      </trkpt>
      <trkpt lat="43.42835" lon="6.49963">
        <ele>26</ele>
        <time>2021-10-13T12:28:18Z</time>
      </trkpt>
      <trkpt lat="43.42836" lon="6.49958">
        <ele>26</ele>
        <time>2021-10-13T12:28:20Z</time>
      </trkpt>
      <trkpt lat="43.42837" lon="6.49953">
        <ele>26</ele>
        <time>2021-10-13T12:28:22Z</time>
      </trkpt>
      <trkpt lat="43.42839" lon="6.49947">
        <ele>25</ele>
        <time>2021-10-13T12:28:25Z</time>
      </trkpt>
      <trkpt lat="43.42842" lon="6.49942">
        <ele>24</ele>
        <time>2021-10-13T12:28:28Z</time>
      </trkpt>
      <trkpt lat="43.42843" lon="6.49936">
        <ele>24</ele>
        <time>2021-10-13T12:28:31Z</time>
      </trkpt>
      <trkpt lat="43.42851" lon="6.49921">
        <ele>21</ele>
        <time>2021-10-13T12:28:39Z</time>
      </trkpt>
      <trkpt lat="43.42852" lon="6.49915">
        <ele>21</ele>
        <time>2021-10-13T12:28:42Z</time>
      </trkpt>
      <trkpt lat="43.42855" lon="6.49901">
        <ele>19</ele>
        <time>2021-10-13T12:28:49Z</time>
      </trkpt>
      <trkpt lat="43.42859" lon="6.49898">
        <ele>18</ele>
        <time>2021-10-13T12:28:54Z</time>
      </trkpt>
      <trkpt lat="43.42863" lon="6.49892">
        <ele>19</ele>
        <time>2021-10-13T12:28:58Z</time>
      </trkpt>
      <trkpt lat="43.42865" lon="6.49889">
        <ele>21</ele>
        <time>2021-10-13T12:29:04Z</time>
      </trkpt>
      <trkpt lat="43.42873" lon="6.49885">
        <ele>26</ele>
        <time>2021-10-13T12:29:20Z</time>
      </trkpt>
      <trkpt lat="43.42879" lon="6.49883">
        <ele>24</ele>
        <time>2021-10-13T12:29:28Z</time>
      </trkpt>
      <trkpt lat="43.42883" lon="6.49886">
        <ele>24</ele>
        <time>2021-10-13T12:29:33Z</time>
      </trkpt>
      <trkpt lat="43.42885" lon="6.49892">
        <ele>25</ele>
        <time>2021-10-13T12:29:39Z</time>
      </trkpt>
      <trkpt lat="43.42884" lon="6.49897">
        <ele>26</ele>
        <time>2021-10-13T12:29:45Z</time>
      </trkpt>
      <trkpt lat="43.42888" lon="6.49901">
        <ele>26</ele>
        <time>2021-10-13T12:29:54Z</time>
      </trkpt>
      <trkpt lat="43.42887" lon="6.49907">
        <ele>28</ele>
        <time>2021-10-13T12:29:59Z</time>
      </trkpt>
      <trkpt lat="43.42888" lon="6.49912">
        <ele>31</ele>
        <time>2021-10-13T12:30:05Z</time>
      </trkpt>
      <trkpt lat="43.42889" lon="6.49917">
        <ele>33</ele>
        <time>2021-10-13T12:30:12Z</time>
      </trkpt>
      <trkpt lat="43.4289" lon="6.49927">
        <ele>38</ele>
        <time>2021-10-13T12:30:22Z</time>
      </trkpt>
      <trkpt lat="43.42891" lon="6.49931">
        <ele>41</ele>
        <time>2021-10-13T12:30:26Z</time>
      </trkpt>
      <trkpt lat="43.42894" lon="6.49935">
        <ele>44</ele>
        <time>2021-10-13T12:30:33Z</time>
      </trkpt>
      <trkpt lat="43.42898" lon="6.49931">
        <ele>46</ele>
        <time>2021-10-13T12:30:41Z</time>
      </trkpt>
      <trkpt lat="43.42897" lon="6.49925">
        <ele>46</ele>
        <time>2021-10-13T12:30:44Z</time>
      </trkpt>
      <trkpt lat="43.42902" lon="6.49927">
        <ele>45</ele>
        <time>2021-10-13T12:30:48Z</time>
      </trkpt>
      <trkpt lat="43.42902" lon="6.49932">
        <ele>46</ele>
        <time>2021-10-13T12:30:53Z</time>
      </trkpt>
      <trkpt lat="43.42904" lon="6.49936">
        <ele>49</ele>
        <time>2021-10-13T12:31:05Z</time>
      </trkpt>
      <trkpt lat="43.42903" lon="6.49941">
        <ele>52</ele>
        <time>2021-10-13T12:31:13Z</time>
      </trkpt>
      <trkpt lat="43.42904" lon="6.49946">
        <ele>53</ele>
        <time>2021-10-13T12:31:18Z</time>
      </trkpt>
      <trkpt lat="43.42909" lon="6.49944">
        <ele>53</ele>
        <time>2021-10-13T12:31:23Z</time>
      </trkpt>
      <trkpt lat="43.42912" lon="6.49945">
        <ele>56</ele>
        <time>2021-10-13T12:31:34Z</time>
      </trkpt>
      <trkpt lat="43.42916" lon="6.49941">
        <ele>55</ele>
        <time>2021-10-13T12:31:38Z</time>
      </trkpt>
      <trkpt lat="43.42919" lon="6.49942">
        <ele>56</ele>
        <time>2021-10-13T12:31:55Z</time>
      </trkpt>
      <trkpt lat="43.42918" lon="6.49945">
        <ele>57</ele>
        <time>2021-10-13T12:32:01Z</time>
      </trkpt>
      <trkpt lat="43.42916" lon="6.49948">
        <ele>59</ele>
        <time>2021-10-13T12:32:07Z</time>
      </trkpt>
      <trkpt lat="43.42915" lon="6.49952">
        <ele>59</ele>
        <time>2021-10-13T12:32:10Z</time>
      </trkpt>
      <trkpt lat="43.42912" lon="6.4996">
        <ele>59</ele>
        <time>2021-10-13T12:32:18Z</time>
      </trkpt>
      <trkpt lat="43.42911" lon="6.49963">
        <ele>59</ele>
        <time>2021-10-13T12:32:22Z</time>
      </trkpt>
      <trkpt lat="43.42909" lon="6.49966">
        <ele>59</ele>
        <time>2021-10-13T12:32:26Z</time>
      </trkpt>
      <trkpt lat="43.42909" lon="6.4997">
        <ele>61</ele>
        <time>2021-10-13T12:32:33Z</time>
      </trkpt>
      <trkpt lat="43.42908" lon="6.49975">
        <ele>62</ele>
        <time>2021-10-13T12:32:38Z</time>
      </trkpt>
      <trkpt lat="43.42906" lon="6.4998">
        <ele>63</ele>
        <time>2021-10-13T12:32:43Z</time>
      </trkpt>
      <trkpt lat="43.42899" lon="6.49987">
        <ele>64</ele>
        <time>2021-10-13T12:32:49Z</time>
      </trkpt>
      <trkpt lat="43.42897" lon="6.50015">
        <ele>69</ele>
        <time>2021-10-13T12:33:12Z</time>
      </trkpt>
      <trkpt lat="43.42896" lon="6.50019">
        <ele>70</ele>
        <time>2021-10-13T12:33:20Z</time>
      </trkpt>
      <trkpt lat="43.42898" lon="6.50024">
        <ele>72</ele>
        <time>2021-10-13T12:33:27Z</time>
      </trkpt>
      <trkpt lat="43.429" lon="6.50026">
        <ele>74</ele>
        <time>2021-10-13T12:33:37Z</time>
      </trkpt>
      <trkpt lat="43.42901" lon="6.50023">
        <ele>74</ele>
        <time>2021-10-13T12:33:55Z</time>
      </trkpt>
      <trkpt lat="43.42904" lon="6.50026">
        <ele>74</ele>
        <time>2021-10-13T12:34:23Z</time>
      </trkpt>
      <trkpt lat="43.42907" lon="6.50027">
        <ele>76</ele>
        <time>2021-10-13T12:34:31Z</time>
      </trkpt>
      <trkpt lat="43.4291" lon="6.50027">
        <ele>77</ele>
        <time>2021-10-13T12:34:34Z</time>
      </trkpt>
      <trkpt lat="43.4291" lon="6.5003">
        <ele>79</ele>
        <time>2021-10-13T12:34:45Z</time>
      </trkpt>
      <trkpt lat="43.42909" lon="6.50033">
        <ele>78</ele>
        <time>2021-10-13T12:35:35Z</time>
      </trkpt>
      <trkpt lat="43.42911" lon="6.50033">
        <ele>82</ele>
        <time>2021-10-13T12:36:22Z</time>
      </trkpt>
      <trkpt lat="43.42908" lon="6.50036">
        <ele>82</ele>
        <time>2021-10-13T12:36:33Z</time>
      </trkpt>
      <trkpt lat="43.42907" lon="6.50032">
        <ele>81</ele>
        <time>2021-10-13T12:37:16Z</time>
      </trkpt>
      <trkpt lat="43.42908" lon="6.50027">
        <ele>80</ele>
        <time>2021-10-13T12:37:41Z</time>
      </trkpt>
      <trkpt lat="43.42904" lon="6.50027">
        <ele>77</ele>
        <time>2021-10-13T12:37:49Z</time>
      </trkpt>
      <trkpt lat="43.42903" lon="6.50024">
        <ele>75</ele>
        <time>2021-10-13T12:37:54Z</time>
      </trkpt>
      <trkpt lat="43.42902" lon="6.50027">
        <ele>74</ele>
        <time>2021-10-13T12:39:45Z</time>
      </trkpt>
      <trkpt lat="43.42903" lon="6.50029">
        <ele>74</ele>
        <time>2021-10-13T12:40:07Z</time>
      </trkpt>
      <trkpt lat="43.429" lon="6.50025">
        <ele>73</ele>
        <time>2021-10-13T12:40:51Z</time>
      </trkpt>
      <trkpt lat="43.42899" lon="6.50026">
        <ele>67</ele>
        <time>2021-10-13T12:41:46Z</time>
      </trkpt>
      <trkpt lat="43.42902" lon="6.50028">
        <ele>70</ele>
        <time>2021-10-13T12:41:51Z</time>
      </trkpt>
      <trkpt lat="43.42905" lon="6.50025">
        <ele>72</ele>
        <time>2021-10-13T12:41:55Z</time>
      </trkpt>
      <trkpt lat="43.42908" lon="6.50026">
        <ele>73</ele>
        <time>2021-10-13T12:42:00Z</time>
      </trkpt>
      <trkpt lat="43.42908" lon="6.5003">
        <ele>73</ele>
        <time>2021-10-13T12:42:05Z</time>
      </trkpt>
      <trkpt lat="43.42914" lon="6.50035">
        <ele>75</ele>
        <time>2021-10-13T12:42:12Z</time>
      </trkpt>
      <trkpt lat="43.42915" lon="6.50039">
        <ele>76</ele>
        <time>2021-10-13T12:42:33Z</time>
      </trkpt>
      <trkpt lat="43.42917" lon="6.50042">
        <ele>76</ele>
        <time>2021-10-13T12:42:37Z</time>
      </trkpt>
      <trkpt lat="43.42921" lon="6.50044">
        <ele>77</ele>
        <time>2021-10-13T12:42:49Z</time>
      </trkpt>
      <trkpt lat="43.42923" lon="6.50039">
        <ele>78</ele>
        <time>2021-10-13T12:42:54Z</time>
      </trkpt>
      <trkpt lat="43.42929" lon="6.50031">
        <ele>81</ele>
        <time>2021-10-13T12:43:02Z</time>
      </trkpt>
      <trkpt lat="43.42933" lon="6.50029">
        <ele>83</ele>
        <time>2021-10-13T12:43:07Z</time>
      </trkpt>
      <trkpt lat="43.42931" lon="6.50037">
        <ele>86</ele>
        <time>2021-10-13T12:43:20Z</time>
      </trkpt>
      <trkpt lat="43.42934" lon="6.50039">
        <ele>89</ele>
        <time>2021-10-13T12:43:26Z</time>
      </trkpt>
      <trkpt lat="43.42948" lon="6.50043">
        <ele>90</ele>
        <time>2021-10-13T12:43:44Z</time>
      </trkpt>
      <trkpt lat="43.42951" lon="6.50047">
        <ele>89</ele>
        <time>2021-10-13T12:43:49Z</time>
      </trkpt>
      <trkpt lat="43.42958" lon="6.50047">
        <ele>89</ele>
        <time>2021-10-13T12:43:53Z</time>
      </trkpt>
      <trkpt lat="43.42977" lon="6.50036">
        <ele>91</ele>
        <time>2021-10-13T12:44:08Z</time>
      </trkpt>
      <trkpt lat="43.42981" lon="6.50037">
        <ele>92</ele>
        <time>2021-10-13T12:44:13Z</time>
      </trkpt>
      <trkpt lat="43.42985" lon="6.50043">
        <ele>91</ele>
        <time>2021-10-13T12:44:19Z</time>
      </trkpt>
      <trkpt lat="43.42994" lon="6.50041">
        <ele>92</ele>
        <time>2021-10-13T12:44:24Z</time>
      </trkpt>
      <trkpt lat="43.42999" lon="6.5004">
        <ele>92</ele>
        <time>2021-10-13T12:44:28Z</time>
      </trkpt>
      <trkpt lat="43.43003" lon="6.50041">
        <ele>93</ele>
        <time>2021-10-13T12:44:33Z</time>
      </trkpt>
      <trkpt lat="43.43008" lon="6.50051">
        <ele>93</ele>
        <time>2021-10-13T12:44:39Z</time>
      </trkpt>
      <trkpt lat="43.43007" lon="6.50062">
        <ele>95</ele>
        <time>2021-10-13T12:44:46Z</time>
      </trkpt>
      <trkpt lat="43.43006" lon="6.50067">
        <ele>93</ele>
        <time>2021-10-13T12:44:49Z</time>
      </trkpt>
      <trkpt lat="43.43006" lon="6.50073">
        <ele>93</ele>
        <time>2021-10-13T12:44:54Z</time>
      </trkpt>
      <trkpt lat="43.4301" lon="6.50076">
        <ele>98</ele>
        <time>2021-10-13T12:45:03Z</time>
      </trkpt>
      <trkpt lat="43.43014" lon="6.50076">
        <ele>101</ele>
        <time>2021-10-13T12:45:13Z</time>
      </trkpt>
      <trkpt lat="43.43013" lon="6.50078">
        <ele>103</ele>
        <time>2021-10-13T12:45:33Z</time>
      </trkpt>
      <trkpt lat="43.43021" lon="6.50078">
        <ele>102</ele>
        <time>2021-10-13T12:45:43Z</time>
      </trkpt>
      <trkpt lat="43.43018" lon="6.50076">
        <ele>101</ele>
        <time>2021-10-13T12:45:49Z</time>
      </trkpt>
      <trkpt lat="43.43016" lon="6.50073">
        <ele>99</ele>
        <time>2021-10-13T12:46:18Z</time>
      </trkpt>
      <trkpt lat="43.43016" lon="6.50076">
        <ele>99</ele>
        <time>2021-10-13T12:47:16Z</time>
      </trkpt>
      <trkpt lat="43.43014" lon="6.50075">
        <ele>101</ele>
        <time>2021-10-13T12:48:51Z</time>
      </trkpt>
      <trkpt lat="43.43012" lon="6.50078">
        <ele>101</ele>
        <time>2021-10-13T12:49:09Z</time>
      </trkpt>
      <trkpt lat="43.43019" lon="6.50077">
        <ele>103</ele>
        <time>2021-10-13T12:49:34Z</time>
      </trkpt>
      <trkpt lat="43.43026" lon="6.50083">
        <ele>108</ele>
        <time>2021-10-13T12:49:40Z</time>
      </trkpt>
      <trkpt lat="43.43031" lon="6.50081">
        <ele>108</ele>
        <time>2021-10-13T12:49:43Z</time>
      </trkpt>
      <trkpt lat="43.43042" lon="6.5008">
        <ele>109</ele>
        <time>2021-10-13T12:49:51Z</time>
      </trkpt>
      <trkpt lat="43.43043" lon="6.50078">
        <ele>109</ele>
        <time>2021-10-13T12:49:53Z</time>
      </trkpt>
      <trkpt lat="43.43049" lon="6.50078">
        <ele>107</ele>
        <time>2021-10-13T12:49:57Z</time>
      </trkpt>
      <trkpt lat="43.43062" lon="6.50077">
        <ele>101</ele>
        <time>2021-10-13T12:50:03Z</time>
      </trkpt>
      <trkpt lat="43.43064" lon="6.50078">
        <ele>102</ele>
        <time>2021-10-13T12:50:07Z</time>
      </trkpt>
      <trkpt lat="43.43081" lon="6.5006">
        <ele>108</ele>
        <time>2021-10-13T12:50:22Z</time>
      </trkpt>
      <trkpt lat="43.43097" lon="6.5003">
        <ele>114</ele>
        <time>2021-10-13T12:50:42Z</time>
      </trkpt>
      <trkpt lat="43.431" lon="6.50021">
        <ele>114</ele>
        <time>2021-10-13T12:50:48Z</time>
      </trkpt>
      <trkpt lat="43.43106" lon="6.50008">
        <ele>116</ele>
        <time>2021-10-13T12:50:56Z</time>
      </trkpt>
      <trkpt lat="43.43109" lon="6.50007">
        <ele>116</ele>
        <time>2021-10-13T12:50:58Z</time>
      </trkpt>
      <trkpt lat="43.43112" lon="6.50007">
        <ele>116</ele>
        <time>2021-10-13T12:51:00Z</time>
      </trkpt>
      <trkpt lat="43.43122" lon="6.50006">
        <ele>117</ele>
        <time>2021-10-13T12:51:08Z</time>
      </trkpt>
      <trkpt lat="43.43125" lon="6.50006">
        <ele>117</ele>
        <time>2021-10-13T12:51:10Z</time>
      </trkpt>
      <trkpt lat="43.43128" lon="6.50004">
        <ele>118</ele>
        <time>2021-10-13T12:51:12Z</time>
      </trkpt>
      <trkpt lat="43.4314" lon="6.49999">
        <ele>119</ele>
        <time>2021-10-13T12:51:22Z</time>
      </trkpt>
      <trkpt lat="43.43167" lon="6.49996">
        <ele>119</ele>
        <time>2021-10-13T12:51:42Z</time>
      </trkpt>
      <trkpt lat="43.43188" lon="6.49975">
        <ele>123</ele>
        <time>2021-10-13T12:52:01Z</time>
      </trkpt>
      <trkpt lat="43.43219" lon="6.49938">
        <ele>128</ele>
        <time>2021-10-13T12:52:31Z</time>
      </trkpt>
      <trkpt lat="43.43228" lon="6.49929">
        <ele>129</ele>
        <time>2021-10-13T12:52:39Z</time>
      </trkpt>
      <trkpt lat="43.4323" lon="6.49928">
        <ele>129</ele>
        <time>2021-10-13T12:52:41Z</time>
      </trkpt>
      <trkpt lat="43.43233" lon="6.49927">
        <ele>130</ele>
        <time>2021-10-13T12:52:43Z</time>
      </trkpt>
      <trkpt lat="43.43234" lon="6.49928">
        <ele>130</ele>
        <time>2021-10-13T12:52:46Z</time>
      </trkpt>
      <trkpt lat="43.43235" lon="6.49925">
        <ele>131</ele>
        <time>2021-10-13T12:53:02Z</time>
      </trkpt>
      <trkpt lat="43.43238" lon="6.49919">
        <ele>131</ele>
        <time>2021-10-13T12:55:37Z</time>
      </trkpt>
      <trkpt lat="43.43244" lon="6.49912">
        <ele>132</ele>
        <time>2021-10-13T12:55:43Z</time>
      </trkpt>
      <trkpt lat="43.43257" lon="6.49904">
        <ele>132</ele>
        <time>2021-10-13T12:55:54Z</time>
      </trkpt>
      <trkpt lat="43.43261" lon="6.49895">
        <ele>132</ele>
        <time>2021-10-13T12:56:00Z</time>
      </trkpt>
      <trkpt lat="43.43263" lon="6.4989">
        <ele>132</ele>
        <time>2021-10-13T12:56:03Z</time>
      </trkpt>
      <trkpt lat="43.43265" lon="6.49882">
        <ele>131</ele>
        <time>2021-10-13T12:56:08Z</time>
      </trkpt>
      <trkpt lat="43.43267" lon="6.49878">
        <ele>131</ele>
        <time>2021-10-13T12:56:11Z</time>
      </trkpt>
      <trkpt lat="43.43269" lon="6.49873">
        <ele>132</ele>
        <time>2021-10-13T12:56:14Z</time>
      </trkpt>
      <trkpt lat="43.43277" lon="6.49817">
        <ele>131</ele>
        <time>2021-10-13T12:56:44Z</time>
      </trkpt>
      <trkpt lat="43.43279" lon="6.498">
        <ele>130</ele>
        <time>2021-10-13T12:56:52Z</time>
      </trkpt>
      <trkpt lat="43.4328" lon="6.49795">
        <ele>130</ele>
        <time>2021-10-13T12:56:54Z</time>
      </trkpt>
      <trkpt lat="43.43292" lon="6.49737">
        <ele>131</ele>
        <time>2021-10-13T12:57:22Z</time>
      </trkpt>
      <trkpt lat="43.43294" lon="6.49734">
        <ele>131</ele>
        <time>2021-10-13T12:57:24Z</time>
      </trkpt>
      <trkpt lat="43.43309" lon="6.49671">
        <ele>132</ele>
        <time>2021-10-13T12:57:54Z</time>
      </trkpt>
      <trkpt lat="43.43313" lon="6.4965">
        <ele>132</ele>
        <time>2021-10-13T12:58:05Z</time>
      </trkpt>
      <trkpt lat="43.43313" lon="6.49605">
        <ele>130</ele>
        <time>2021-10-13T12:58:29Z</time>
      </trkpt>
      <trkpt lat="43.43313" lon="6.49571">
        <ele>128</ele>
        <time>2021-10-13T12:58:43Z</time>
      </trkpt>
      <trkpt lat="43.43314" lon="6.49562">
        <ele>127</ele>
        <time>2021-10-13T12:58:48Z</time>
      </trkpt>
      <trkpt lat="43.43314" lon="6.49555">
        <ele>126</ele>
        <time>2021-10-13T12:58:52Z</time>
      </trkpt>
      <trkpt lat="43.4332" lon="6.49534">
        <ele>120</ele>
        <time>2021-10-13T12:59:02Z</time>
      </trkpt>
      <trkpt lat="43.43319" lon="6.49515">
        <ele>118</ele>
        <time>2021-10-13T12:59:11Z</time>
      </trkpt>
      <trkpt lat="43.43322" lon="6.4951">
        <ele>115</ele>
        <time>2021-10-13T12:59:14Z</time>
      </trkpt>
      <trkpt lat="43.43323" lon="6.49463">
        <ele>120</ele>
        <time>2021-10-13T12:59:34Z</time>
      </trkpt>
      <trkpt lat="43.4332" lon="6.49425">
        <ele>124</ele>
        <time>2021-10-13T12:59:53Z</time>
      </trkpt>
      <trkpt lat="43.43322" lon="6.49415">
        <ele>124</ele>
        <time>2021-10-13T12:59:59Z</time>
      </trkpt>
      <trkpt lat="43.43321" lon="6.49404">
        <ele>124</ele>
        <time>2021-10-13T13:00:03Z</time>
      </trkpt>
      <trkpt lat="43.4332" lon="6.494">
        <ele>125</ele>
        <time>2021-10-13T13:00:05Z</time>
      </trkpt>
      <trkpt lat="43.43316" lon="6.49376">
        <ele>123</ele>
        <time>2021-10-13T13:00:19Z</time>
      </trkpt>
      <trkpt lat="43.43314" lon="6.49372">
        <ele>123</ele>
        <time>2021-10-13T13:00:21Z</time>
      </trkpt>
      <trkpt lat="43.43313" lon="6.49368">
        <ele>123</ele>
        <time>2021-10-13T13:00:23Z</time>
      </trkpt>
      <trkpt lat="43.43312" lon="6.49363">
        <ele>123</ele>
        <time>2021-10-13T13:00:25Z</time>
      </trkpt>
      <trkpt lat="43.43311" lon="6.49355">
        <ele>123</ele>
        <time>2021-10-13T13:00:29Z</time>
      </trkpt>
      <trkpt lat="43.43307" lon="6.49347">
        <ele>124</ele>
        <time>2021-10-13T13:00:34Z</time>
      </trkpt>
      <trkpt lat="43.43305" lon="6.49339">
        <ele>125</ele>
        <time>2021-10-13T13:00:38Z</time>
      </trkpt>
      <trkpt lat="43.43301" lon="6.49331">
        <ele>126</ele>
        <time>2021-10-13T13:00:43Z</time>
      </trkpt>
      <trkpt lat="43.43298" lon="6.49324">
        <ele>127</ele>
        <time>2021-10-13T13:00:47Z</time>
      </trkpt>
      <trkpt lat="43.43295" lon="6.49316">
        <ele>128</ele>
        <time>2021-10-13T13:00:52Z</time>
      </trkpt>
      <trkpt lat="43.4329" lon="6.49307">
        <ele>130</ele>
        <time>2021-10-13T13:00:58Z</time>
      </trkpt>
      <trkpt lat="43.43286" lon="6.493">
        <ele>130</ele>
        <time>2021-10-13T13:01:02Z</time>
      </trkpt>
      <trkpt lat="43.43284" lon="6.49296">
        <ele>131</ele>
        <time>2021-10-13T13:01:04Z</time>
      </trkpt>
      <trkpt lat="43.43284" lon="6.49293">
        <ele>131</ele>
        <time>2021-10-13T13:01:07Z</time>
      </trkpt>
      <trkpt lat="43.43281" lon="6.49292">
        <ele>131</ele>
        <time>2021-10-13T13:01:10Z</time>
      </trkpt>
      <trkpt lat="43.43268" lon="6.49271">
        <ele>134</ele>
        <time>2021-10-13T13:01:25Z</time>
      </trkpt>
      <trkpt lat="43.43262" lon="6.49259">
        <ele>136</ele>
        <time>2021-10-13T13:01:33Z</time>
      </trkpt>
      <trkpt lat="43.43254" lon="6.49252">
        <ele>137</ele>
        <time>2021-10-13T13:01:41Z</time>
      </trkpt>
      <trkpt lat="43.43242" lon="6.49247">
        <ele>140</ele>
        <time>2021-10-13T13:01:50Z</time>
      </trkpt>
      <trkpt lat="43.43223" lon="6.49243">
        <ele>143</ele>
        <time>2021-10-13T13:02:04Z</time>
      </trkpt>
      <trkpt lat="43.43216" lon="6.49245">
        <ele>145</ele>
        <time>2021-10-13T13:02:51Z</time>
      </trkpt>
      <trkpt lat="43.43215" lon="6.49248">
        <ele>143</ele>
        <time>2021-10-13T13:03:10Z</time>
      </trkpt>
      <trkpt lat="43.43216" lon="6.49245">
        <ele>138</ele>
        <time>2021-10-13T13:04:10Z</time>
      </trkpt>
      <trkpt lat="43.43216" lon="6.49239">
        <ele>138</ele>
        <time>2021-10-13T13:04:22Z</time>
      </trkpt>
      <trkpt lat="43.43213" lon="6.49238">
        <ele>139</ele>
        <time>2021-10-13T13:05:54Z</time>
      </trkpt>
      <trkpt lat="43.43195" lon="6.49244">
        <ele>141</ele>
        <time>2021-10-13T13:06:11Z</time>
      </trkpt>
      <trkpt lat="43.43191" lon="6.49245">
        <ele>141</ele>
        <time>2021-10-13T13:06:14Z</time>
      </trkpt>
      <trkpt lat="43.43183" lon="6.49241">
        <ele>142</ele>
        <time>2021-10-13T13:06:20Z</time>
      </trkpt>
      <trkpt lat="43.4318" lon="6.49242">
        <ele>137</ele>
        <time>2021-10-13T13:06:28Z</time>
      </trkpt>
      <trkpt lat="43.43175" lon="6.49245">
        <ele>138</ele>
        <time>2021-10-13T13:06:39Z</time>
      </trkpt>
      <trkpt lat="43.43172" lon="6.4924">
        <ele>140</ele>
        <time>2021-10-13T13:06:44Z</time>
      </trkpt>
      <trkpt lat="43.43171" lon="6.49237">
        <ele>141</ele>
        <time>2021-10-13T13:06:48Z</time>
      </trkpt>
      <trkpt lat="43.4317" lon="6.49233">
        <ele>144</ele>
        <time>2021-10-13T13:07:06Z</time>
      </trkpt>
      <trkpt lat="43.43169" lon="6.49233">
        <ele>142</ele>
        <time>2021-10-13T13:07:32Z</time>
      </trkpt>
      <trkpt lat="43.43167" lon="6.49229">
        <ele>141</ele>
        <time>2021-10-13T13:07:35Z</time>
      </trkpt>
      <trkpt lat="43.43164" lon="6.49216">
        <ele>141</ele>
        <time>2021-10-13T13:07:41Z</time>
      </trkpt>
      <trkpt lat="43.43147" lon="6.49187">
        <ele>143</ele>
        <time>2021-10-13T13:07:58Z</time>
      </trkpt>
      <trkpt lat="43.43128" lon="6.49175">
        <ele>145</ele>
        <time>2021-10-13T13:08:13Z</time>
      </trkpt>
      <trkpt lat="43.43105" lon="6.49167">
        <ele>146</ele>
        <time>2021-10-13T13:08:31Z</time>
      </trkpt>
      <trkpt lat="43.43093" lon="6.49158">
        <ele>146</ele>
        <time>2021-10-13T13:08:40Z</time>
      </trkpt>
      <trkpt lat="43.43084" lon="6.4915">
        <ele>147</ele>
        <time>2021-10-13T13:08:47Z</time>
      </trkpt>
      <trkpt lat="43.43081" lon="6.49143">
        <ele>147</ele>
        <time>2021-10-13T13:08:51Z</time>
      </trkpt>
      <trkpt lat="43.43046" lon="6.49095">
        <ele>150</ele>
        <time>2021-10-13T13:09:22Z</time>
      </trkpt>
      <trkpt lat="43.4304" lon="6.49087">
        <ele>149</ele>
        <time>2021-10-13T13:09:28Z</time>
      </trkpt>
      <trkpt lat="43.43035" lon="6.49079">
        <ele>148</ele>
        <time>2021-10-13T13:09:32Z</time>
      </trkpt>
      <trkpt lat="43.43029" lon="6.49073">
        <ele>148</ele>
        <time>2021-10-13T13:09:36Z</time>
      </trkpt>
      <trkpt lat="43.43024" lon="6.49063">
        <ele>147</ele>
        <time>2021-10-13T13:09:41Z</time>
      </trkpt>
      <trkpt lat="43.43018" lon="6.49058">
        <ele>146</ele>
        <time>2021-10-13T13:09:45Z</time>
      </trkpt>
      <trkpt lat="43.43003" lon="6.49049">
        <ele>145</ele>
        <time>2021-10-13T13:09:55Z</time>
      </trkpt>
      <trkpt lat="43.43" lon="6.49047">
        <ele>145</ele>
        <time>2021-10-13T13:09:57Z</time>
      </trkpt>
      <trkpt lat="43.42973" lon="6.49032">
        <ele>137</ele>
        <time>2021-10-13T13:10:14Z</time>
      </trkpt>
      <trkpt lat="43.42966" lon="6.49026">
        <ele>137</ele>
        <time>2021-10-13T13:10:20Z</time>
      </trkpt>
      <trkpt lat="43.42957" lon="6.49012">
        <ele>136</ele>
        <time>2021-10-13T13:10:29Z</time>
      </trkpt>
      <trkpt lat="43.42949" lon="6.49">
        <ele>136</ele>
        <time>2021-10-13T13:10:37Z</time>
      </trkpt>
      <trkpt lat="43.42938" lon="6.48986">
        <ele>132</ele>
        <time>2021-10-13T13:10:46Z</time>
      </trkpt>
      <trkpt lat="43.42916" lon="6.48967">
        <ele>134</ele>
        <time>2021-10-13T13:11:01Z</time>
      </trkpt>
      <trkpt lat="43.42896" lon="6.48938">
        <ele>134</ele>
        <time>2021-10-13T13:11:20Z</time>
      </trkpt>
      <trkpt lat="43.42889" lon="6.48926">
        <ele>134</ele>
        <time>2021-10-13T13:11:27Z</time>
      </trkpt>
      <trkpt lat="43.42873" lon="6.48912">
        <ele>135</ele>
        <time>2021-10-13T13:11:40Z</time>
      </trkpt>
      <trkpt lat="43.42863" lon="6.48909">
        <ele>137</ele>
        <time>2021-10-13T13:11:47Z</time>
      </trkpt>
      <trkpt lat="43.42821" lon="6.48908">
        <ele>143</ele>
        <time>2021-10-13T13:12:17Z</time>
      </trkpt>
      <trkpt lat="43.428" lon="6.48906">
        <ele>146</ele>
        <time>2021-10-13T13:12:31Z</time>
      </trkpt>
      <trkpt lat="43.42787" lon="6.48892">
        <ele>146</ele>
        <time>2021-10-13T13:12:42Z</time>
      </trkpt>
      <trkpt lat="43.42779" lon="6.48878">
        <ele>145</ele>
        <time>2021-10-13T13:12:49Z</time>
      </trkpt>
      <trkpt lat="43.42773" lon="6.48868">
        <ele>147</ele>
        <time>2021-10-13T13:12:55Z</time>
      </trkpt>
      <trkpt lat="43.42773" lon="6.48862">
        <ele>148</ele>
        <time>2021-10-13T13:12:58Z</time>
      </trkpt>
      <trkpt lat="43.42775" lon="6.48857">
        <ele>147</ele>
        <time>2021-10-13T13:13:01Z</time>
      </trkpt>
      <trkpt lat="43.42775" lon="6.48851">
        <ele>148</ele>
        <time>2021-10-13T13:13:04Z</time>
      </trkpt>
      <trkpt lat="43.42773" lon="6.48847">
        <ele>149</ele>
        <time>2021-10-13T13:13:06Z</time>
      </trkpt>
      <trkpt lat="43.42773" lon="6.48824">
        <ele>153</ele>
        <time>2021-10-13T13:13:18Z</time>
      </trkpt>
      <trkpt lat="43.42775" lon="6.48812">
        <ele>154</ele>
        <time>2021-10-13T13:13:24Z</time>
      </trkpt>
      <trkpt lat="43.42775" lon="6.48804">
        <ele>154</ele>
        <time>2021-10-13T13:13:28Z</time>
      </trkpt>
      <trkpt lat="43.42776" lon="6.48787">
        <ele>155</ele>
        <time>2021-10-13T13:13:36Z</time>
      </trkpt>
      <trkpt lat="43.42776" lon="6.48772">
        <ele>156</ele>
        <time>2021-10-13T13:13:42Z</time>
      </trkpt>
      <trkpt lat="43.42779" lon="6.48765">
        <ele>154</ele>
        <time>2021-10-13T13:13:44Z</time>
      </trkpt>
      <trkpt lat="43.42774" lon="6.48726">
        <ele>156</ele>
        <time>2021-10-13T13:14:06Z</time>
      </trkpt>
      <trkpt lat="43.42769" lon="6.48706">
        <ele>157</ele>
        <time>2021-10-13T13:14:17Z</time>
      </trkpt>
      <trkpt lat="43.42761" lon="6.48692">
        <ele>156</ele>
        <time>2021-10-13T13:14:25Z</time>
      </trkpt>
      <trkpt lat="43.42729" lon="6.48642">
        <ele>157</ele>
        <time>2021-10-13T13:14:56Z</time>
      </trkpt>
      <trkpt lat="43.42725" lon="6.48636">
        <ele>158</ele>
        <time>2021-10-13T13:15:01Z</time>
      </trkpt>
      <trkpt lat="43.42715" lon="6.48626">
        <ele>156</ele>
        <time>2021-10-13T13:15:10Z</time>
      </trkpt>
      <trkpt lat="43.42695" lon="6.48604">
        <ele>160</ele>
        <time>2021-10-13T13:15:27Z</time>
      </trkpt>
      <trkpt lat="43.42679" lon="6.48581">
        <ele>160</ele>
        <time>2021-10-13T13:15:45Z</time>
      </trkpt>
      <trkpt lat="43.42679" lon="6.48578">
        <ele>162</ele>
        <time>2021-10-13T13:15:52Z</time>
      </trkpt>
      <trkpt lat="43.42682" lon="6.48579">
        <ele>163</ele>
        <time>2021-10-13T13:19:09Z</time>
      </trkpt>
      <trkpt lat="43.42683" lon="6.48582">
        <ele>162</ele>
        <time>2021-10-13T13:19:46Z</time>
      </trkpt>
      <trkpt lat="43.42682" lon="6.4858">
        <ele>162</ele>
        <time>2021-10-13T13:22:10Z</time>
      </trkpt>
      <trkpt lat="43.4268" lon="6.48579">
        <ele>162</ele>
        <time>2021-10-13T13:22:15Z</time>
      </trkpt>
      <trkpt lat="43.42677" lon="6.48578">
        <ele>162</ele>
        <time>2021-10-13T13:22:18Z</time>
      </trkpt>
      <trkpt lat="43.42655" lon="6.48577">
        <ele>164</ele>
        <time>2021-10-13T13:22:39Z</time>
      </trkpt>
      <trkpt lat="43.42652" lon="6.48576">
        <ele>165</ele>
        <time>2021-10-13T13:22:42Z</time>
      </trkpt>
      <trkpt lat="43.42645" lon="6.48574">
        <ele>165</ele>
        <time>2021-10-13T13:22:47Z</time>
      </trkpt>
      <trkpt lat="43.42642" lon="6.48574">
        <ele>165</ele>
        <time>2021-10-13T13:22:49Z</time>
      </trkpt>
      <trkpt lat="43.42639" lon="6.48574">
        <ele>165</ele>
        <time>2021-10-13T13:22:51Z</time>
      </trkpt>
      <trkpt lat="43.42631" lon="6.48573">
        <ele>165</ele>
        <time>2021-10-13T13:22:57Z</time>
      </trkpt>
      <trkpt lat="43.42627" lon="6.48573">
        <ele>165</ele>
        <time>2021-10-13T13:23:01Z</time>
      </trkpt>
      <trkpt lat="43.42623" lon="6.48571">
        <ele>165</ele>
        <time>2021-10-13T13:23:05Z</time>
      </trkpt>
      <trkpt lat="43.42616" lon="6.4857">
        <ele>166</ele>
        <time>2021-10-13T13:23:09Z</time>
      </trkpt>
      <trkpt lat="43.42613" lon="6.48569">
        <ele>166</ele>
        <time>2021-10-13T13:23:12Z</time>
      </trkpt>
      <trkpt lat="43.42608" lon="6.48568">
        <ele>166</ele>
        <time>2021-10-13T13:23:15Z</time>
      </trkpt>
      <trkpt lat="43.42602" lon="6.48569">
        <ele>164</ele>
        <time>2021-10-13T13:23:20Z</time>
      </trkpt>
      <trkpt lat="43.42594" lon="6.48562">
        <ele>161</ele>
        <time>2021-10-13T13:23:26Z</time>
      </trkpt>
      <trkpt lat="43.42586" lon="6.48556">
        <ele>163</ele>
        <time>2021-10-13T13:23:33Z</time>
      </trkpt>
      <trkpt lat="43.42553" lon="6.48543">
        <ele>170</ele>
        <time>2021-10-13T13:23:58Z</time>
      </trkpt>
      <trkpt lat="43.42529" lon="6.48541">
        <ele>179</ele>
        <time>2021-10-13T13:24:16Z</time>
      </trkpt>
      <trkpt lat="43.42526" lon="6.48542">
        <ele>180</ele>
        <time>2021-10-13T13:24:20Z</time>
      </trkpt>
      <trkpt lat="43.42521" lon="6.48546">
        <ele>180</ele>
        <time>2021-10-13T13:24:24Z</time>
      </trkpt>
      <trkpt lat="43.42514" lon="6.48548">
        <ele>180</ele>
        <time>2021-10-13T13:24:30Z</time>
      </trkpt>
      <trkpt lat="43.42473" lon="6.48553">
        <ele>183</ele>
        <time>2021-10-13T13:25:01Z</time>
      </trkpt>
      <trkpt lat="43.42429" lon="6.48555">
        <ele>186</ele>
        <time>2021-10-13T13:25:31Z</time>
      </trkpt>
      <trkpt lat="43.42389" lon="6.4856">
        <ele>187</ele>
        <time>2021-10-13T13:26:01Z</time>
      </trkpt>
      <trkpt lat="43.42381" lon="6.48557">
        <ele>187</ele>
        <time>2021-10-13T13:26:07Z</time>
      </trkpt>
      <trkpt lat="43.42378" lon="6.48555">
        <ele>187</ele>
        <time>2021-10-13T13:26:09Z</time>
      </trkpt>
      <trkpt lat="43.42375" lon="6.48554">
        <ele>188</ele>
        <time>2021-10-13T13:26:11Z</time>
      </trkpt>
      <trkpt lat="43.42373" lon="6.48555">
        <ele>188</ele>
        <time>2021-10-13T13:26:13Z</time>
      </trkpt>
      <trkpt lat="43.4237" lon="6.48557">
        <ele>188</ele>
        <time>2021-10-13T13:26:15Z</time>
      </trkpt>
      <trkpt lat="43.42365" lon="6.48564">
        <ele>187</ele>
        <time>2021-10-13T13:26:21Z</time>
      </trkpt>
      <trkpt lat="43.42363" lon="6.48566">
        <ele>187</ele>
        <time>2021-10-13T13:26:23Z</time>
      </trkpt>
      <trkpt lat="43.42352" lon="6.48574">
        <ele>187</ele>
        <time>2021-10-13T13:26:31Z</time>
      </trkpt>
      <trkpt lat="43.42349" lon="6.48576">
        <ele>186</ele>
        <time>2021-10-13T13:26:33Z</time>
      </trkpt>
      <trkpt lat="43.42342" lon="6.48588">
        <ele>187</ele>
        <time>2021-10-13T13:26:42Z</time>
      </trkpt>
      <trkpt lat="43.42336" lon="6.48597">
        <ele>186</ele>
        <time>2021-10-13T13:26:48Z</time>
      </trkpt>
      <trkpt lat="43.42321" lon="6.48604">
        <ele>184</ele>
        <time>2021-10-13T13:26:59Z</time>
      </trkpt>
      <trkpt lat="43.42313" lon="6.48607">
        <ele>184</ele>
        <time>2021-10-13T13:27:05Z</time>
      </trkpt>
      <trkpt lat="43.42295" lon="6.48621">
        <ele>183</ele>
        <time>2021-10-13T13:27:18Z</time>
      </trkpt>
      <trkpt lat="43.42289" lon="6.48626">
        <ele>183</ele>
        <time>2021-10-13T13:27:22Z</time>
      </trkpt>
      <trkpt lat="43.42285" lon="6.48629">
        <ele>184</ele>
        <time>2021-10-13T13:27:25Z</time>
      </trkpt>
      <trkpt lat="43.42283" lon="6.48632">
        <ele>184</ele>
        <time>2021-10-13T13:27:31Z</time>
      </trkpt>
      <trkpt lat="43.4228" lon="6.48637">
        <ele>184</ele>
        <time>2021-10-13T13:27:33Z</time>
      </trkpt>
      <trkpt lat="43.42277" lon="6.48639">
        <ele>185</ele>
        <time>2021-10-13T13:27:39Z</time>
      </trkpt>
      <trkpt lat="43.4227" lon="6.48652">
        <ele>186</ele>
        <time>2021-10-13T13:27:51Z</time>
      </trkpt>
      <trkpt lat="43.42268" lon="6.48657">
        <ele>186</ele>
        <time>2021-10-13T13:27:54Z</time>
      </trkpt>
      <trkpt lat="43.42268" lon="6.48671">
        <ele>185</ele>
        <time>2021-10-13T13:28:02Z</time>
      </trkpt>
      <trkpt lat="43.42267" lon="6.48681">
        <ele>184</ele>
        <time>2021-10-13T13:28:08Z</time>
      </trkpt>
      <trkpt lat="43.42267" lon="6.48686">
        <ele>184</ele>
        <time>2021-10-13T13:28:12Z</time>
      </trkpt>
      <trkpt lat="43.42268" lon="6.48704">
        <ele>184</ele>
        <time>2021-10-13T13:28:23Z</time>
      </trkpt>
      <trkpt lat="43.42269" lon="6.48717">
        <ele>184</ele>
        <time>2021-10-13T13:28:30Z</time>
      </trkpt>
      <trkpt lat="43.42268" lon="6.48725">
        <ele>180</ele>
        <time>2021-10-13T13:28:35Z</time>
      </trkpt>
      <trkpt lat="43.42265" lon="6.48743">
        <ele>178</ele>
        <time>2021-10-13T13:28:44Z</time>
      </trkpt>
      <trkpt lat="43.42263" lon="6.48749">
        <ele>178</ele>
        <time>2021-10-13T13:28:48Z</time>
      </trkpt>
      <trkpt lat="43.42266" lon="6.48772">
        <ele>177</ele>
        <time>2021-10-13T13:29:01Z</time>
      </trkpt>
      <trkpt lat="43.42266" lon="6.48778">
        <ele>177</ele>
        <time>2021-10-13T13:29:04Z</time>
      </trkpt>
      <trkpt lat="43.42267" lon="6.48783">
        <ele>177</ele>
        <time>2021-10-13T13:29:07Z</time>
      </trkpt>
      <trkpt lat="43.42266" lon="6.48791">
        <ele>175</ele>
        <time>2021-10-13T13:29:13Z</time>
      </trkpt>
      <trkpt lat="43.42265" lon="6.48806">
        <ele>175</ele>
        <time>2021-10-13T13:29:20Z</time>
      </trkpt>
      <trkpt lat="43.42267" lon="6.48812">
        <ele>175</ele>
        <time>2021-10-13T13:29:23Z</time>
      </trkpt>
      <trkpt lat="43.42267" lon="6.48818">
        <ele>176</ele>
        <time>2021-10-13T13:29:26Z</time>
      </trkpt>
      <trkpt lat="43.42269" lon="6.48824">
        <ele>176</ele>
        <time>2021-10-13T13:29:30Z</time>
      </trkpt>
      <trkpt lat="43.42269" lon="6.48837">
        <ele>175</ele>
        <time>2021-10-13T13:29:36Z</time>
      </trkpt>
      <trkpt lat="43.42267" lon="6.48843">
        <ele>175</ele>
        <time>2021-10-13T13:29:39Z</time>
      </trkpt>
      <trkpt lat="43.42263" lon="6.48846">
        <ele>175</ele>
        <time>2021-10-13T13:29:42Z</time>
      </trkpt>
      <trkpt lat="43.42259" lon="6.48846">
        <ele>175</ele>
        <time>2021-10-13T13:29:46Z</time>
      </trkpt>
      <trkpt lat="43.42242" lon="6.48842">
        <ele>172</ele>
        <time>2021-10-13T13:29:57Z</time>
      </trkpt>
      <trkpt lat="43.42238" lon="6.48839">
        <ele>172</ele>
        <time>2021-10-13T13:30:01Z</time>
      </trkpt>
      <trkpt lat="43.42232" lon="6.48831">
        <ele>172</ele>
        <time>2021-10-13T13:30:06Z</time>
      </trkpt>
      <trkpt lat="43.42227" lon="6.48828">
        <ele>172</ele>
        <time>2021-10-13T13:30:09Z</time>
      </trkpt>
      <trkpt lat="43.42225" lon="6.48825">
        <ele>175</ele>
        <time>2021-10-13T13:30:12Z</time>
      </trkpt>
      <trkpt lat="43.42225" lon="6.48821">
        <ele>177</ele>
        <time>2021-10-13T13:30:16Z</time>
      </trkpt>
      <trkpt lat="43.42224" lon="6.48808">
        <ele>179</ele>
        <time>2021-10-13T13:30:27Z</time>
      </trkpt>
      <trkpt lat="43.42223" lon="6.48805">
        <ele>179</ele>
        <time>2021-10-13T13:30:29Z</time>
      </trkpt>
      <trkpt lat="43.42221" lon="6.48804">
        <ele>180</ele>
        <time>2021-10-13T13:30:31Z</time>
      </trkpt>
      <trkpt lat="43.42217" lon="6.48803">
        <ele>180</ele>
        <time>2021-10-13T13:30:35Z</time>
      </trkpt>
      <trkpt lat="43.42214" lon="6.48803">
        <ele>180</ele>
        <time>2021-10-13T13:30:37Z</time>
      </trkpt>
      <trkpt lat="43.42211" lon="6.48801">
        <ele>178</ele>
        <time>2021-10-13T13:30:41Z</time>
      </trkpt>
      <trkpt lat="43.42196" lon="6.48801">
        <ele>175</ele>
        <time>2021-10-13T13:30:47Z</time>
      </trkpt>
      <trkpt lat="43.42193" lon="6.488">
        <ele>175</ele>
        <time>2021-10-13T13:30:50Z</time>
      </trkpt>
      <trkpt lat="43.42191" lon="6.48797">
        <ele>175</ele>
        <time>2021-10-13T13:30:54Z</time>
      </trkpt>
      <trkpt lat="43.42179" lon="6.48789">
        <ele>177</ele>
        <time>2021-10-13T13:31:08Z</time>
      </trkpt>
      <trkpt lat="43.42164" lon="6.48782">
        <ele>176</ele>
        <time>2021-10-13T13:31:20Z</time>
      </trkpt>
      <trkpt lat="43.42161" lon="6.4878">
        <ele>176</ele>
        <time>2021-10-13T13:31:23Z</time>
      </trkpt>
      <trkpt lat="43.42144" lon="6.48771">
        <ele>174</ele>
        <time>2021-10-13T13:31:39Z</time>
      </trkpt>
      <trkpt lat="43.42137" lon="6.48768">
        <ele>173</ele>
        <time>2021-10-13T13:31:45Z</time>
      </trkpt>
      <trkpt lat="43.42134" lon="6.48766">
        <ele>173</ele>
        <time>2021-10-13T13:31:48Z</time>
      </trkpt>
      <trkpt lat="43.42127" lon="6.48761">
        <ele>172</ele>
        <time>2021-10-13T13:31:53Z</time>
      </trkpt>
      <trkpt lat="43.42121" lon="6.48757">
        <ele>170</ele>
        <time>2021-10-13T13:31:58Z</time>
      </trkpt>
      <trkpt lat="43.42119" lon="6.48755">
        <ele>170</ele>
        <time>2021-10-13T13:32:01Z</time>
      </trkpt>
      <trkpt lat="43.42116" lon="6.48754">
        <ele>170</ele>
        <time>2021-10-13T13:32:03Z</time>
      </trkpt>
      <trkpt lat="43.4211" lon="6.4875">
        <ele>167</ele>
        <time>2021-10-13T13:32:08Z</time>
      </trkpt>
      <trkpt lat="43.42105" lon="6.48749">
        <ele>159</ele>
        <time>2021-10-13T13:32:13Z</time>
      </trkpt>
      <trkpt lat="43.42091" lon="6.48744">
        <ele>156</ele>
        <time>2021-10-13T13:32:24Z</time>
      </trkpt>
      <trkpt lat="43.42087" lon="6.48744">
        <ele>157</ele>
        <time>2021-10-13T13:32:28Z</time>
      </trkpt>
      <trkpt lat="43.42068" lon="6.48738">
        <ele>154</ele>
        <time>2021-10-13T13:32:41Z</time>
      </trkpt>
      <trkpt lat="43.42065" lon="6.48737">
        <ele>153</ele>
        <time>2021-10-13T13:32:44Z</time>
      </trkpt>
      <trkpt lat="43.42055" lon="6.48733">
        <ele>152</ele>
        <time>2021-10-13T13:32:52Z</time>
      </trkpt>
      <trkpt lat="43.42051" lon="6.48732">
        <ele>150</ele>
        <time>2021-10-13T13:32:55Z</time>
      </trkpt>
      <trkpt lat="43.42048" lon="6.48735">
        <ele>148</ele>
        <time>2021-10-13T13:32:58Z</time>
      </trkpt>
      <trkpt lat="43.42045" lon="6.48735">
        <ele>148</ele>
        <time>2021-10-13T13:33:00Z</time>
      </trkpt>
      <trkpt lat="43.4204" lon="6.4874">
        <ele>146</ele>
        <time>2021-10-13T13:33:04Z</time>
      </trkpt>
      <trkpt lat="43.42035" lon="6.48739">
        <ele>144</ele>
        <time>2021-10-13T13:33:07Z</time>
      </trkpt>
      <trkpt lat="43.42028" lon="6.48737">
        <ele>143</ele>
        <time>2021-10-13T13:33:16Z</time>
      </trkpt>
      <trkpt lat="43.42022" lon="6.48735">
        <ele>140</ele>
        <time>2021-10-13T13:33:20Z</time>
      </trkpt>
      <trkpt lat="43.42011" lon="6.48734">
        <ele>138</ele>
        <time>2021-10-13T13:33:28Z</time>
      </trkpt>
      <trkpt lat="43.42007" lon="6.48734">
        <ele>137</ele>
        <time>2021-10-13T13:33:34Z</time>
      </trkpt>
      <trkpt lat="43.41997" lon="6.48731">
        <ele>137</ele>
        <time>2021-10-13T13:33:44Z</time>
      </trkpt>
      <trkpt lat="43.41993" lon="6.4873">
        <ele>137</ele>
        <time>2021-10-13T13:33:46Z</time>
      </trkpt>
      <trkpt lat="43.4199" lon="6.48727">
        <ele>137</ele>
        <time>2021-10-13T13:33:50Z</time>
      </trkpt>
      <trkpt lat="43.41988" lon="6.48729">
        <ele>137</ele>
        <time>2021-10-13T13:33:53Z</time>
      </trkpt>
      <trkpt lat="43.41987" lon="6.48733">
        <ele>138</ele>
        <time>2021-10-13T13:33:56Z</time>
      </trkpt>
      <trkpt lat="43.41985" lon="6.48731">
        <ele>136</ele>
        <time>2021-10-13T13:35:25Z</time>
      </trkpt>
      <trkpt lat="43.41983" lon="6.48731">
        <ele>135</ele>
        <time>2021-10-13T13:36:56Z</time>
      </trkpt>
      <trkpt lat="43.4198" lon="6.48735">
        <ele>134</ele>
        <time>2021-10-13T13:37:32Z</time>
      </trkpt>
      <trkpt lat="43.41981" lon="6.48737">
        <ele>134</ele>
        <time>2021-10-13T13:38:32Z</time>
      </trkpt>
      <trkpt lat="43.41981" lon="6.48736">
        <ele>135</ele>
        <time>2021-10-13T13:39:39Z</time>
      </trkpt>
      <trkpt lat="43.41981" lon="6.48735">
        <ele>137</ele>
        <time>2021-10-13T13:40:30Z</time>
      </trkpt>
      <trkpt lat="43.41984" lon="6.48739">
        <ele>137</ele>
        <time>2021-10-13T13:41:16Z</time>
      </trkpt>
      <trkpt lat="43.41985" lon="6.48735">
        <ele>135</ele>
        <time>2021-10-13T13:42:25Z</time>
      </trkpt>
      <trkpt lat="43.41982" lon="6.48734">
        <ele>136</ele>
        <time>2021-10-13T13:44:41Z</time>
      </trkpt>
      <trkpt lat="43.41979" lon="6.48734">
        <ele>136</ele>
        <time>2021-10-13T13:44:44Z</time>
      </trkpt>
      <trkpt lat="43.41974" lon="6.48735">
        <ele>136</ele>
        <time>2021-10-13T13:44:53Z</time>
      </trkpt>
      <trkpt lat="43.41971" lon="6.48736">
        <ele>136</ele>
        <time>2021-10-13T13:45:25Z</time>
      </trkpt>
      <trkpt lat="43.41969" lon="6.48736">
        <ele>136</ele>
        <time>2021-10-13T13:45:27Z</time>
      </trkpt>
      <trkpt lat="43.41962" lon="6.48738">
        <ele>136</ele>
        <time>2021-10-13T13:45:32Z</time>
      </trkpt>
      <trkpt lat="43.4195" lon="6.48744">
        <ele>137</ele>
        <time>2021-10-13T13:45:41Z</time>
      </trkpt>
      <trkpt lat="43.41936" lon="6.48744">
        <ele>136</ele>
        <time>2021-10-13T13:45:49Z</time>
      </trkpt>
      <trkpt lat="43.41932" lon="6.48745">
        <ele>136</ele>
        <time>2021-10-13T13:45:51Z</time>
      </trkpt>
      <trkpt lat="43.41924" lon="6.48752">
        <ele>135</ele>
        <time>2021-10-13T13:45:57Z</time>
      </trkpt>
      <trkpt lat="43.41922" lon="6.48755">
        <ele>135</ele>
        <time>2021-10-13T13:45:59Z</time>
      </trkpt>
      <trkpt lat="43.4192" lon="6.48758">
        <ele>135</ele>
        <time>2021-10-13T13:46:02Z</time>
      </trkpt>
      <trkpt lat="43.41912" lon="6.48762">
        <ele>133</ele>
        <time>2021-10-13T13:46:06Z</time>
      </trkpt>
      <trkpt lat="43.41905" lon="6.48763">
        <ele>132</ele>
        <time>2021-10-13T13:46:11Z</time>
      </trkpt>
      <trkpt lat="43.41893" lon="6.48764">
        <ele>131</ele>
        <time>2021-10-13T13:46:20Z</time>
      </trkpt>
      <trkpt lat="43.41885" lon="6.48764">
        <ele>132</ele>
        <time>2021-10-13T13:46:26Z</time>
      </trkpt>
      <trkpt lat="43.41876" lon="6.48764">
        <ele>131</ele>
        <time>2021-10-13T13:46:32Z</time>
      </trkpt>
      <trkpt lat="43.41861" lon="6.48762">
        <ele>131</ele>
        <time>2021-10-13T13:46:42Z</time>
      </trkpt>
      <trkpt lat="43.41846" lon="6.48767">
        <ele>128</ele>
        <time>2021-10-13T13:46:53Z</time>
      </trkpt>
      <trkpt lat="43.41841" lon="6.48768">
        <ele>126</ele>
        <time>2021-10-13T13:46:56Z</time>
      </trkpt>
      <trkpt lat="43.41834" lon="6.48766">
        <ele>124</ele>
        <time>2021-10-13T13:47:00Z</time>
      </trkpt>
      <trkpt lat="43.41826" lon="6.4877">
        <ele>124</ele>
        <time>2021-10-13T13:47:06Z</time>
      </trkpt>
      <trkpt lat="43.41823" lon="6.48772">
        <ele>123</ele>
        <time>2021-10-13T13:47:10Z</time>
      </trkpt>
      <trkpt lat="43.41819" lon="6.48773">
        <ele>123</ele>
        <time>2021-10-13T13:47:13Z</time>
      </trkpt>
      <trkpt lat="43.41809" lon="6.48779">
        <ele>121</ele>
        <time>2021-10-13T13:47:21Z</time>
      </trkpt>
      <trkpt lat="43.41804" lon="6.48782">
        <ele>120</ele>
        <time>2021-10-13T13:47:25Z</time>
      </trkpt>
      <trkpt lat="43.41796" lon="6.48785">
        <ele>118</ele>
        <time>2021-10-13T13:47:32Z</time>
      </trkpt>
      <trkpt lat="43.41791" lon="6.48787">
        <ele>117</ele>
        <time>2021-10-13T13:47:35Z</time>
      </trkpt>
      <trkpt lat="43.4177" lon="6.48821">
        <ele>111</ele>
        <time>2021-10-13T13:47:56Z</time>
      </trkpt>
      <trkpt lat="43.41764" lon="6.48848">
        <ele>107</ele>
        <time>2021-10-13T13:48:14Z</time>
      </trkpt>
      <trkpt lat="43.41761" lon="6.48861">
        <ele>105</ele>
        <time>2021-10-13T13:48:21Z</time>
      </trkpt>
      <trkpt lat="43.41755" lon="6.4887">
        <ele>104</ele>
        <time>2021-10-13T13:48:28Z</time>
      </trkpt>
      <trkpt lat="43.41752" lon="6.48874">
        <ele>103</ele>
        <time>2021-10-13T13:48:31Z</time>
      </trkpt>
      <trkpt lat="43.41743" lon="6.48888">
        <ele>103</ele>
        <time>2021-10-13T13:48:38Z</time>
      </trkpt>
      <trkpt lat="43.41739" lon="6.48891">
        <ele>101</ele>
        <time>2021-10-13T13:48:41Z</time>
      </trkpt>
      <trkpt lat="43.41737" lon="6.48894">
        <ele>100</ele>
        <time>2021-10-13T13:48:44Z</time>
      </trkpt>
      <trkpt lat="43.4172" lon="6.4891">
        <ele>96</ele>
        <time>2021-10-13T13:48:59Z</time>
      </trkpt>
      <trkpt lat="43.41718" lon="6.48913">
        <ele>96</ele>
        <time>2021-10-13T13:49:02Z</time>
      </trkpt>
      <trkpt lat="43.41709" lon="6.48921">
        <ele>93</ele>
        <time>2021-10-13T13:49:12Z</time>
      </trkpt>
      <trkpt lat="43.41707" lon="6.48924">
        <ele>92</ele>
        <time>2021-10-13T13:49:16Z</time>
      </trkpt>
      <trkpt lat="43.41703" lon="6.4893">
        <ele>90</ele>
        <time>2021-10-13T13:49:24Z</time>
      </trkpt>
      <trkpt lat="43.41701" lon="6.48932">
        <ele>89</ele>
        <time>2021-10-13T13:49:27Z</time>
      </trkpt>
      <trkpt lat="43.41698" lon="6.48935">
        <ele>88</ele>
        <time>2021-10-13T13:49:31Z</time>
      </trkpt>
      <trkpt lat="43.41694" lon="6.48941">
        <ele>83</ele>
        <time>2021-10-13T13:49:36Z</time>
      </trkpt>
      <trkpt lat="43.41692" lon="6.48947">
        <ele>81</ele>
        <time>2021-10-13T13:49:38Z</time>
      </trkpt>
      <trkpt lat="43.4169" lon="6.48959">
        <ele>80</ele>
        <time>2021-10-13T13:49:44Z</time>
      </trkpt>
      <trkpt lat="43.41688" lon="6.48964">
        <ele>79</ele>
        <time>2021-10-13T13:49:46Z</time>
      </trkpt>
      <trkpt lat="43.41687" lon="6.48987">
        <ele>78</ele>
        <time>2021-10-13T13:49:57Z</time>
      </trkpt>
      <trkpt lat="43.41688" lon="6.48992">
        <ele>77</ele>
        <time>2021-10-13T13:50:01Z</time>
      </trkpt>
      <trkpt lat="43.41685" lon="6.48994">
        <ele>75</ele>
        <time>2021-10-13T13:50:14Z</time>
      </trkpt>
      <trkpt lat="43.41687" lon="6.48992">
        <ele>72</ele>
        <time>2021-10-13T13:50:48Z</time>
      </trkpt>
      <trkpt lat="43.41688" lon="6.48994">
        <ele>69</ele>
        <time>2021-10-13T13:53:28Z</time>
      </trkpt>
      <trkpt lat="43.4169" lon="6.48993">
        <ele>70</ele>
        <time>2021-10-13T13:53:41Z</time>
      </trkpt>
      <trkpt lat="43.41692" lon="6.48991">
        <ele>72</ele>
        <time>2021-10-13T13:54:10Z</time>
      </trkpt>
      <trkpt lat="43.41693" lon="6.48992">
        <ele>74</ele>
        <time>2021-10-13T13:56:02Z</time>
      </trkpt>
      <trkpt lat="43.41693" lon="6.48991">
        <ele>73</ele>
        <time>2021-10-13T13:56:19Z</time>
      </trkpt>
      <trkpt lat="43.41687" lon="6.48986">
        <ele>73</ele>
        <time>2021-10-13T13:56:24Z</time>
      </trkpt>
      <trkpt lat="43.4169" lon="6.48986">
        <ele>69</ele>
        <time>2021-10-13T13:56:28Z</time>
      </trkpt>
      <trkpt lat="43.41694" lon="6.48988">
        <ele>68</ele>
        <time>2021-10-13T13:56:57Z</time>
      </trkpt>
      <trkpt lat="43.41697" lon="6.48986">
        <ele>70</ele>
        <time>2021-10-13T13:58:34Z</time>
      </trkpt>
      <trkpt lat="43.41708" lon="6.48981">
        <ele>70</ele>
        <time>2021-10-13T13:58:42Z</time>
      </trkpt>
      <trkpt lat="43.41714" lon="6.48982">
        <ele>70</ele>
        <time>2021-10-13T13:59:06Z</time>
      </trkpt>
      <trkpt lat="43.4173" lon="6.48988">
        <ele>69</ele>
        <time>2021-10-13T13:59:14Z</time>
      </trkpt>
      <trkpt lat="43.41741" lon="6.48994">
        <ele>67</ele>
        <time>2021-10-13T13:59:17Z</time>
      </trkpt>
      <trkpt lat="43.41748" lon="6.48997">
        <ele>68</ele>
        <time>2021-10-13T13:59:20Z</time>
      </trkpt>
      <trkpt lat="43.41752" lon="6.49">
        <ele>68</ele>
        <time>2021-10-13T13:59:24Z</time>
      </trkpt>
      <trkpt lat="43.41755" lon="6.49">
        <ele>68</ele>
        <time>2021-10-13T13:59:26Z</time>
      </trkpt>
      <trkpt lat="43.41763" lon="6.49001">
        <ele>68</ele>
        <time>2021-10-13T13:59:31Z</time>
      </trkpt>
      <trkpt lat="43.41772" lon="6.49004">
        <ele>67</ele>
        <time>2021-10-13T13:59:36Z</time>
      </trkpt>
      <trkpt lat="43.41777" lon="6.49003">
        <ele>68</ele>
        <time>2021-10-13T13:59:39Z</time>
      </trkpt>
      <trkpt lat="43.41781" lon="6.48999">
        <ele>68</ele>
        <time>2021-10-13T13:59:44Z</time>
      </trkpt>
      <trkpt lat="43.41785" lon="6.48995">
        <ele>68</ele>
        <time>2021-10-13T13:59:49Z</time>
      </trkpt>
      <trkpt lat="43.41788" lon="6.4899">
        <ele>68</ele>
        <time>2021-10-13T13:59:52Z</time>
      </trkpt>
      <trkpt lat="43.41791" lon="6.48986">
        <ele>68</ele>
        <time>2021-10-13T13:59:56Z</time>
      </trkpt>
      <trkpt lat="43.41795" lon="6.48979">
        <ele>67</ele>
        <time>2021-10-13T14:00:00Z</time>
      </trkpt>
      <trkpt lat="43.41804" lon="6.48969">
        <ele>68</ele>
        <time>2021-10-13T14:00:06Z</time>
      </trkpt>
      <trkpt lat="43.41807" lon="6.48964">
        <ele>69</ele>
        <time>2021-10-13T14:00:09Z</time>
      </trkpt>
      <trkpt lat="43.41808" lon="6.48959">
        <ele>69</ele>
        <time>2021-10-13T14:00:13Z</time>
      </trkpt>
      <trkpt lat="43.41808" lon="6.48953">
        <ele>68</ele>
        <time>2021-10-13T14:00:16Z</time>
      </trkpt>
      <trkpt lat="43.41811" lon="6.48942">
        <ele>68</ele>
        <time>2021-10-13T14:00:21Z</time>
      </trkpt>
      <trkpt lat="43.41814" lon="6.48939">
        <ele>68</ele>
        <time>2021-10-13T14:00:23Z</time>
      </trkpt>
      <trkpt lat="43.41818" lon="6.4894">
        <ele>68</ele>
        <time>2021-10-13T14:00:31Z</time>
      </trkpt>
      <trkpt lat="43.41831" lon="6.48937">
        <ele>68</ele>
        <time>2021-10-13T14:00:41Z</time>
      </trkpt>
      <trkpt lat="43.41868" lon="6.48947">
        <ele>69</ele>
        <time>2021-10-13T14:01:10Z</time>
      </trkpt>
      <trkpt lat="43.41901" lon="6.4895">
        <ele>70</ele>
        <time>2021-10-13T14:01:30Z</time>
      </trkpt>
      <trkpt lat="43.41906" lon="6.48945">
        <ele>69</ele>
        <time>2021-10-13T14:01:35Z</time>
      </trkpt>
      <trkpt lat="43.4191" lon="6.48942">
        <ele>69</ele>
        <time>2021-10-13T14:01:38Z</time>
      </trkpt>
      <trkpt lat="43.41913" lon="6.4894">
        <ele>70</ele>
        <time>2021-10-13T14:01:41Z</time>
      </trkpt>
      <trkpt lat="43.41917" lon="6.48935">
        <ele>69</ele>
        <time>2021-10-13T14:01:44Z</time>
      </trkpt>
      <trkpt lat="43.41927" lon="6.48926">
        <ele>67</ele>
        <time>2021-10-13T14:01:53Z</time>
      </trkpt>
      <trkpt lat="43.41931" lon="6.48928">
        <ele>67</ele>
        <time>2021-10-13T14:01:56Z</time>
      </trkpt>
      <trkpt lat="43.41934" lon="6.48934">
        <ele>69</ele>
        <time>2021-10-13T14:02:01Z</time>
      </trkpt>
      <trkpt lat="43.41933" lon="6.48951">
        <ele>70</ele>
        <time>2021-10-13T14:02:12Z</time>
      </trkpt>
      <trkpt lat="43.41932" lon="6.48956">
        <ele>70</ele>
        <time>2021-10-13T14:02:15Z</time>
      </trkpt>
      <trkpt lat="43.41928" lon="6.4897">
        <ele>70</ele>
        <time>2021-10-13T14:02:23Z</time>
      </trkpt>
      <trkpt lat="43.41925" lon="6.48979">
        <ele>71</ele>
        <time>2021-10-13T14:02:27Z</time>
      </trkpt>
      <trkpt lat="43.41923" lon="6.48983">
        <ele>72</ele>
        <time>2021-10-13T14:02:29Z</time>
      </trkpt>
      <trkpt lat="43.41922" lon="6.48988">
        <ele>72</ele>
        <time>2021-10-13T14:02:32Z</time>
      </trkpt>
      <trkpt lat="43.41924" lon="6.48997">
        <ele>72</ele>
        <time>2021-10-13T14:02:37Z</time>
      </trkpt>
      <trkpt lat="43.41928" lon="6.49001">
        <ele>71</ele>
        <time>2021-10-13T14:02:40Z</time>
      </trkpt>
      <trkpt lat="43.41934" lon="6.49009">
        <ele>71</ele>
        <time>2021-10-13T14:02:46Z</time>
      </trkpt>
      <trkpt lat="43.41938" lon="6.49012">
        <ele>71</ele>
        <time>2021-10-13T14:02:49Z</time>
      </trkpt>
      <trkpt lat="43.41951" lon="6.49023">
        <ele>71</ele>
        <time>2021-10-13T14:03:01Z</time>
      </trkpt>
      <trkpt lat="43.41955" lon="6.49026">
        <ele>70</ele>
        <time>2021-10-13T14:03:04Z</time>
      </trkpt>
      <trkpt lat="43.41958" lon="6.49032">
        <ele>67</ele>
        <time>2021-10-13T14:03:08Z</time>
      </trkpt>
      <trkpt lat="43.41964" lon="6.49032">
        <ele>64</ele>
        <time>2021-10-13T14:03:11Z</time>
      </trkpt>
      <trkpt lat="43.41972" lon="6.49033">
        <ele>63</ele>
        <time>2021-10-13T14:03:16Z</time>
      </trkpt>
      <trkpt lat="43.41976" lon="6.49039">
        <ele>64</ele>
        <time>2021-10-13T14:03:19Z</time>
      </trkpt>
      <trkpt lat="43.41979" lon="6.49043">
        <ele>64</ele>
        <time>2021-10-13T14:03:22Z</time>
      </trkpt>
      <trkpt lat="43.41993" lon="6.49065">
        <ele>64</ele>
        <time>2021-10-13T14:03:44Z</time>
      </trkpt>
      <trkpt lat="43.41994" lon="6.4907">
        <ele>64</ele>
        <time>2021-10-13T14:03:46Z</time>
      </trkpt>
      <trkpt lat="43.41997" lon="6.49074">
        <ele>64</ele>
        <time>2021-10-13T14:03:48Z</time>
      </trkpt>
      <trkpt lat="43.42001" lon="6.4908">
        <ele>65</ele>
        <time>2021-10-13T14:03:51Z</time>
      </trkpt>
      <trkpt lat="43.42011" lon="6.49084">
        <ele>65</ele>
        <time>2021-10-13T14:04:04Z</time>
      </trkpt>
      <trkpt lat="43.42021" lon="6.49092">
        <ele>66</ele>
        <time>2021-10-13T14:04:11Z</time>
      </trkpt>
      <trkpt lat="43.42024" lon="6.49095">
        <ele>65</ele>
        <time>2021-10-13T14:04:13Z</time>
      </trkpt>
      <trkpt lat="43.42029" lon="6.491">
        <ele>65</ele>
        <time>2021-10-13T14:04:17Z</time>
      </trkpt>
      <trkpt lat="43.42049" lon="6.49124">
        <ele>66</ele>
        <time>2021-10-13T14:04:30Z</time>
      </trkpt>
      <trkpt lat="43.42052" lon="6.49127">
        <ele>66</ele>
        <time>2021-10-13T14:04:32Z</time>
      </trkpt>
      <trkpt lat="43.42057" lon="6.49135">
        <ele>68</ele>
        <time>2021-10-13T14:04:37Z</time>
      </trkpt>
      <trkpt lat="43.4206" lon="6.49139">
        <ele>69</ele>
        <time>2021-10-13T14:04:40Z</time>
      </trkpt>
      <trkpt lat="43.42062" lon="6.49144">
        <ele>69</ele>
        <time>2021-10-13T14:04:43Z</time>
      </trkpt>
      <trkpt lat="43.42064" lon="6.49149">
        <ele>69</ele>
        <time>2021-10-13T14:04:46Z</time>
      </trkpt>
      <trkpt lat="43.42067" lon="6.49153">
        <ele>69</ele>
        <time>2021-10-13T14:04:49Z</time>
      </trkpt>
      <trkpt lat="43.4207" lon="6.49157">
        <ele>68</ele>
        <time>2021-10-13T14:04:52Z</time>
      </trkpt>
      <trkpt lat="43.4208" lon="6.49163">
        <ele>66</ele>
        <time>2021-10-13T14:05:01Z</time>
      </trkpt>
      <trkpt lat="43.42083" lon="6.49166">
        <ele>66</ele>
        <time>2021-10-13T14:05:04Z</time>
      </trkpt>
      <trkpt lat="43.42085" lon="6.4917">
        <ele>66</ele>
        <time>2021-10-13T14:05:07Z</time>
      </trkpt>
      <trkpt lat="43.42088" lon="6.49175">
        <ele>66</ele>
        <time>2021-10-13T14:05:10Z</time>
      </trkpt>
      <trkpt lat="43.42091" lon="6.49178">
        <ele>65</ele>
        <time>2021-10-13T14:05:13Z</time>
      </trkpt>
      <trkpt lat="43.42094" lon="6.49182">
        <ele>64</ele>
        <time>2021-10-13T14:05:16Z</time>
      </trkpt>
      <trkpt lat="43.42103" lon="6.49195">
        <ele>64</ele>
        <time>2021-10-13T14:05:25Z</time>
      </trkpt>
      <trkpt lat="43.42106" lon="6.492">
        <ele>64</ele>
        <time>2021-10-13T14:05:28Z</time>
      </trkpt>
      <trkpt lat="43.42109" lon="6.49204">
        <ele>64</ele>
        <time>2021-10-13T14:05:31Z</time>
      </trkpt>
      <trkpt lat="43.42111" lon="6.49209">
        <ele>64</ele>
        <time>2021-10-13T14:05:34Z</time>
      </trkpt>
      <trkpt lat="43.42114" lon="6.49213">
        <ele>65</ele>
        <time>2021-10-13T14:05:37Z</time>
      </trkpt>
      <trkpt lat="43.42118" lon="6.49217">
        <ele>65</ele>
        <time>2021-10-13T14:05:40Z</time>
      </trkpt>
      <trkpt lat="43.42124" lon="6.49223">
        <ele>65</ele>
        <time>2021-10-13T14:05:45Z</time>
      </trkpt>
      <trkpt lat="43.42147" lon="6.4923">
        <ele>66</ele>
        <time>2021-10-13T14:06:04Z</time>
      </trkpt>
      <trkpt lat="43.4215" lon="6.49228">
        <ele>66</ele>
        <time>2021-10-13T14:06:07Z</time>
      </trkpt>
      <trkpt lat="43.42154" lon="6.49226">
        <ele>66</ele>
        <time>2021-10-13T14:06:10Z</time>
      </trkpt>
      <trkpt lat="43.42166" lon="6.4922">
        <ele>66</ele>
        <time>2021-10-13T14:06:19Z</time>
      </trkpt>
      <trkpt lat="43.42169" lon="6.49219">
        <ele>66</ele>
        <time>2021-10-13T14:06:21Z</time>
      </trkpt>
      <trkpt lat="43.42173" lon="6.4922">
        <ele>65</ele>
        <time>2021-10-13T14:06:23Z</time>
      </trkpt>
      <trkpt lat="43.42185" lon="6.49233">
        <ele>64</ele>
        <time>2021-10-13T14:06:34Z</time>
      </trkpt>
      <trkpt lat="43.42188" lon="6.49234">
        <ele>65</ele>
        <time>2021-10-13T14:06:37Z</time>
      </trkpt>
      <trkpt lat="43.42191" lon="6.49234">
        <ele>65</ele>
        <time>2021-10-13T14:06:40Z</time>
      </trkpt>
      <trkpt lat="43.42195" lon="6.49233">
        <ele>65</ele>
        <time>2021-10-13T14:06:42Z</time>
      </trkpt>
      <trkpt lat="43.42198" lon="6.49233">
        <ele>65</ele>
        <time>2021-10-13T14:06:44Z</time>
      </trkpt>
      <trkpt lat="43.42205" lon="6.49234">
        <ele>64</ele>
        <time>2021-10-13T14:06:50Z</time>
      </trkpt>
      <trkpt lat="43.42208" lon="6.49237">
        <ele>64</ele>
        <time>2021-10-13T14:06:53Z</time>
      </trkpt>
      <trkpt lat="43.4221" lon="6.49242">
        <ele>64</ele>
        <time>2021-10-13T14:06:56Z</time>
      </trkpt>
      <trkpt lat="43.42212" lon="6.49258">
        <ele>65</ele>
        <time>2021-10-13T14:07:06Z</time>
      </trkpt>
      <trkpt lat="43.4221" lon="6.49272">
        <ele>65</ele>
        <time>2021-10-13T14:07:13Z</time>
      </trkpt>
      <trkpt lat="43.4221" lon="6.4928">
        <ele>66</ele>
        <time>2021-10-13T14:07:18Z</time>
      </trkpt>
      <trkpt lat="43.42211" lon="6.49286">
        <ele>65</ele>
        <time>2021-10-13T14:07:21Z</time>
      </trkpt>
      <trkpt lat="43.42215" lon="6.49314">
        <ele>68</ele>
        <time>2021-10-13T14:07:36Z</time>
      </trkpt>
      <trkpt lat="43.42216" lon="6.49318">
        <ele>69</ele>
        <time>2021-10-13T14:07:39Z</time>
      </trkpt>
      <trkpt lat="43.42218" lon="6.49322">
        <ele>70</ele>
        <time>2021-10-13T14:07:42Z</time>
      </trkpt>
      <trkpt lat="43.4222" lon="6.49327">
        <ele>70</ele>
        <time>2021-10-13T14:07:45Z</time>
      </trkpt>
      <trkpt lat="43.42225" lon="6.49332">
        <ele>70</ele>
        <time>2021-10-13T14:07:50Z</time>
      </trkpt>
      <trkpt lat="43.42228" lon="6.49335">
        <ele>69</ele>
        <time>2021-10-13T14:07:53Z</time>
      </trkpt>
      <trkpt lat="43.42231" lon="6.49339">
        <ele>69</ele>
        <time>2021-10-13T14:07:57Z</time>
      </trkpt>
      <trkpt lat="43.4224" lon="6.49343">
        <ele>71</ele>
        <time>2021-10-13T14:08:05Z</time>
      </trkpt>
      <trkpt lat="43.4226" lon="6.49345">
        <ele>72</ele>
        <time>2021-10-13T14:08:20Z</time>
      </trkpt>
      <trkpt lat="43.42263" lon="6.49347">
        <ele>71</ele>
        <time>2021-10-13T14:08:23Z</time>
      </trkpt>
      <trkpt lat="43.42267" lon="6.49349">
        <ele>72</ele>
        <time>2021-10-13T14:08:26Z</time>
      </trkpt>
      <trkpt lat="43.4228" lon="6.49361">
        <ele>72</ele>
        <time>2021-10-13T14:08:38Z</time>
      </trkpt>
      <trkpt lat="43.42307" lon="6.49371">
        <ele>73</ele>
        <time>2021-10-13T14:08:58Z</time>
      </trkpt>
      <trkpt lat="43.42311" lon="6.49374">
        <ele>73</ele>
        <time>2021-10-13T14:09:01Z</time>
      </trkpt>
      <trkpt lat="43.42315" lon="6.49377">
        <ele>73</ele>
        <time>2021-10-13T14:09:05Z</time>
      </trkpt>
      <trkpt lat="43.42318" lon="6.49377">
        <ele>73</ele>
        <time>2021-10-13T14:09:07Z</time>
      </trkpt>
      <trkpt lat="43.42347" lon="6.49391">
        <ele>74</ele>
        <time>2021-10-13T14:09:27Z</time>
      </trkpt>
      <trkpt lat="43.42355" lon="6.49391">
        <ele>73</ele>
        <time>2021-10-13T14:09:33Z</time>
      </trkpt>
      <trkpt lat="43.42373" lon="6.49386">
        <ele>75</ele>
        <time>2021-10-13T14:09:44Z</time>
      </trkpt>
      <trkpt lat="43.42376" lon="6.49381">
        <ele>72</ele>
        <time>2021-10-13T14:09:48Z</time>
      </trkpt>
      <trkpt lat="43.42384" lon="6.49378">
        <ele>72</ele>
        <time>2021-10-13T14:09:54Z</time>
      </trkpt>
      <trkpt lat="43.42413" lon="6.49376">
        <ele>73</ele>
        <time>2021-10-13T14:10:15Z</time>
      </trkpt>
      <trkpt lat="43.42421" lon="6.4938">
        <ele>74</ele>
        <time>2021-10-13T14:10:21Z</time>
      </trkpt>
      <trkpt lat="43.42424" lon="6.49381">
        <ele>74</ele>
        <time>2021-10-13T14:10:24Z</time>
      </trkpt>
      <trkpt lat="43.42444" lon="6.49365">
        <ele>75</ele>
        <time>2021-10-13T14:10:40Z</time>
      </trkpt>
      <trkpt lat="43.42451" lon="6.49352">
        <ele>75</ele>
        <time>2021-10-13T14:10:48Z</time>
      </trkpt>
      <trkpt lat="43.42466" lon="6.49331">
        <ele>78</ele>
        <time>2021-10-13T14:11:02Z</time>
      </trkpt>
      <trkpt lat="43.42467" lon="6.49328">
        <ele>79</ele>
        <time>2021-10-13T14:11:04Z</time>
      </trkpt>
      <trkpt lat="43.4247" lon="6.49324">
        <ele>79</ele>
        <time>2021-10-13T14:11:07Z</time>
      </trkpt>
      <trkpt lat="43.42472" lon="6.49321">
        <ele>80</ele>
        <time>2021-10-13T14:11:09Z</time>
      </trkpt>
      <trkpt lat="43.42483" lon="6.49316">
        <ele>82</ele>
        <time>2021-10-13T14:11:15Z</time>
      </trkpt>
      <trkpt lat="43.42493" lon="6.49309">
        <ele>84</ele>
        <time>2021-10-13T14:11:21Z</time>
      </trkpt>
      <trkpt lat="43.42498" lon="6.49304">
        <ele>84</ele>
        <time>2021-10-13T14:11:25Z</time>
      </trkpt>
      <trkpt lat="43.425" lon="6.49296">
        <ele>85</ele>
        <time>2021-10-13T14:11:29Z</time>
      </trkpt>
      <trkpt lat="43.42511" lon="6.49269">
        <ele>83</ele>
        <time>2021-10-13T14:11:45Z</time>
      </trkpt>
      <trkpt lat="43.42513" lon="6.49266">
        <ele>83</ele>
        <time>2021-10-13T14:11:47Z</time>
      </trkpt>
      <trkpt lat="43.42515" lon="6.49254">
        <ele>83</ele>
        <time>2021-10-13T14:11:53Z</time>
      </trkpt>
      <trkpt lat="43.42517" lon="6.49244">
        <ele>84</ele>
        <time>2021-10-13T14:11:59Z</time>
      </trkpt>
      <trkpt lat="43.42517" lon="6.4924">
        <ele>85</ele>
        <time>2021-10-13T14:12:01Z</time>
      </trkpt>
      <trkpt lat="43.42518" lon="6.49236">
        <ele>85</ele>
        <time>2021-10-13T14:12:03Z</time>
      </trkpt>
      <trkpt lat="43.42519" lon="6.49232">
        <ele>85</ele>
        <time>2021-10-13T14:12:05Z</time>
      </trkpt>
      <trkpt lat="43.42524" lon="6.49225">
        <ele>85</ele>
        <time>2021-10-13T14:12:10Z</time>
      </trkpt>
      <trkpt lat="43.42528" lon="6.49224">
        <ele>85</ele>
        <time>2021-10-13T14:12:13Z</time>
      </trkpt>
      <trkpt lat="43.42544" lon="6.49203">
        <ele>84</ele>
        <time>2021-10-13T14:12:31Z</time>
      </trkpt>
      <trkpt lat="43.42547" lon="6.49197">
        <ele>85</ele>
        <time>2021-10-13T14:12:34Z</time>
      </trkpt>
      <trkpt lat="43.42547" lon="6.4919">
        <ele>85</ele>
        <time>2021-10-13T14:12:41Z</time>
      </trkpt>
      <trkpt lat="43.42548" lon="6.49181">
        <ele>87</ele>
        <time>2021-10-13T14:12:44Z</time>
      </trkpt>
      <trkpt lat="43.4255" lon="6.49176">
        <ele>88</ele>
        <time>2021-10-13T14:12:46Z</time>
      </trkpt>
      <trkpt lat="43.42551" lon="6.49168">
        <ele>88</ele>
        <time>2021-10-13T14:12:49Z</time>
      </trkpt>
      <trkpt lat="43.42553" lon="6.49163">
        <ele>88</ele>
        <time>2021-10-13T14:12:52Z</time>
      </trkpt>
      <trkpt lat="43.42554" lon="6.49156">
        <ele>88</ele>
        <time>2021-10-13T14:12:55Z</time>
      </trkpt>
      <trkpt lat="43.42557" lon="6.49151">
        <ele>89</ele>
        <time>2021-10-13T14:12:58Z</time>
      </trkpt>
      <trkpt lat="43.42557" lon="6.49137">
        <ele>89</ele>
        <time>2021-10-13T14:13:04Z</time>
      </trkpt>
      <trkpt lat="43.42561" lon="6.49125">
        <ele>89</ele>
        <time>2021-10-13T14:13:09Z</time>
      </trkpt>
      <trkpt lat="43.42562" lon="6.49128">
        <ele>90</ele>
        <time>2021-10-13T14:13:25Z</time>
      </trkpt>
      <trkpt lat="43.42562" lon="6.49138">
        <ele>90</ele>
        <time>2021-10-13T14:13:31Z</time>
      </trkpt>
      <trkpt lat="43.4256" lon="6.49154">
        <ele>90</ele>
        <time>2021-10-13T14:13:41Z</time>
      </trkpt>
      <trkpt lat="43.42559" lon="6.49157">
        <ele>90</ele>
        <time>2021-10-13T14:13:44Z</time>
      </trkpt>
      <trkpt lat="43.42556" lon="6.49162">
        <ele>91</ele>
        <time>2021-10-13T14:14:01Z</time>
      </trkpt>
      <trkpt lat="43.42556" lon="6.49167">
        <ele>88</ele>
        <time>2021-10-13T14:14:31Z</time>
      </trkpt>
      <trkpt lat="43.42557" lon="6.49167">
        <ele>88</ele>
        <time>2021-10-13T14:17:17Z</time>
      </trkpt>
      <trkpt lat="43.42558" lon="6.49161">
        <ele>88</ele>
        <time>2021-10-13T14:17:44Z</time>
      </trkpt>
      <trkpt lat="43.42552" lon="6.49162">
        <ele>89</ele>
        <time>2021-10-13T14:18:55Z</time>
      </trkpt>
      <trkpt lat="43.42553" lon="6.49163">
        <ele>83</ele>
        <time>2021-10-13T14:19:27Z</time>
      </trkpt>
      <trkpt lat="43.42559" lon="6.4915">
        <ele>86</ele>
        <time>2021-10-13T14:19:35Z</time>
      </trkpt>
      <trkpt lat="43.42559" lon="6.49146">
        <ele>87</ele>
        <time>2021-10-13T14:19:37Z</time>
      </trkpt>
      <trkpt lat="43.42559" lon="6.49142">
        <ele>88</ele>
        <time>2021-10-13T14:19:40Z</time>
      </trkpt>
      <trkpt lat="43.42558" lon="6.49134">
        <ele>90</ele>
        <time>2021-10-13T14:19:46Z</time>
      </trkpt>
      <trkpt lat="43.42555" lon="6.49121">
        <ele>89</ele>
        <time>2021-10-13T14:19:56Z</time>
      </trkpt>
      <trkpt lat="43.42551" lon="6.49109">
        <ele>90</ele>
        <time>2021-10-13T14:20:03Z</time>
      </trkpt>
      <trkpt lat="43.42549" lon="6.49105">
        <ele>90</ele>
        <time>2021-10-13T14:20:06Z</time>
      </trkpt>
      <trkpt lat="43.42542" lon="6.49087">
        <ele>91</ele>
        <time>2021-10-13T14:20:16Z</time>
      </trkpt>
      <trkpt lat="43.42541" lon="6.49082">
        <ele>91</ele>
        <time>2021-10-13T14:20:20Z</time>
      </trkpt>
      <trkpt lat="43.42537" lon="6.49077">
        <ele>91</ele>
        <time>2021-10-13T14:20:28Z</time>
      </trkpt>
      <trkpt lat="43.42535" lon="6.49071">
        <ele>91</ele>
        <time>2021-10-13T14:20:33Z</time>
      </trkpt>
      <trkpt lat="43.42534" lon="6.49066">
        <ele>91</ele>
        <time>2021-10-13T14:20:37Z</time>
      </trkpt>
      <trkpt lat="43.42532" lon="6.4906">
        <ele>89</ele>
        <time>2021-10-13T14:20:40Z</time>
      </trkpt>
      <trkpt lat="43.42536" lon="6.49055">
        <ele>86</ele>
        <time>2021-10-13T14:20:45Z</time>
      </trkpt>
      <trkpt lat="43.42547" lon="6.49052">
        <ele>83</ele>
        <time>2021-10-13T14:20:51Z</time>
      </trkpt>
      <trkpt lat="43.42555" lon="6.49056">
        <ele>84</ele>
        <time>2021-10-13T14:20:57Z</time>
      </trkpt>
      <trkpt lat="43.42563" lon="6.49063">
        <ele>87</ele>
        <time>2021-10-13T14:21:07Z</time>
      </trkpt>
      <trkpt lat="43.42567" lon="6.49066">
        <ele>87</ele>
        <time>2021-10-13T14:21:11Z</time>
      </trkpt>
      <trkpt lat="43.42569" lon="6.49069">
        <ele>88</ele>
        <time>2021-10-13T14:21:14Z</time>
      </trkpt>
      <trkpt lat="43.4258" lon="6.49084">
        <ele>87</ele>
        <time>2021-10-13T14:21:47Z</time>
      </trkpt>
      <trkpt lat="43.42585" lon="6.4909">
        <ele>85</ele>
        <time>2021-10-13T14:21:49Z</time>
      </trkpt>
      <trkpt lat="43.42593" lon="6.49101">
        <ele>84</ele>
        <time>2021-10-13T14:21:53Z</time>
      </trkpt>
      <trkpt lat="43.42628" lon="6.49134">
        <ele>92</ele>
        <time>2021-10-13T14:22:07Z</time>
      </trkpt>
      <trkpt lat="43.42641" lon="6.49142">
        <ele>96</ele>
        <time>2021-10-13T14:22:15Z</time>
      </trkpt>
      <trkpt lat="43.42644" lon="6.49143">
        <ele>96</ele>
        <time>2021-10-13T14:22:17Z</time>
      </trkpt>
      <trkpt lat="43.42652" lon="6.49142">
        <ele>98</ele>
        <time>2021-10-13T14:22:23Z</time>
      </trkpt>
      <trkpt lat="43.42655" lon="6.49141">
        <ele>97</ele>
        <time>2021-10-13T14:22:25Z</time>
      </trkpt>
      <trkpt lat="43.42658" lon="6.49139">
        <ele>96</ele>
        <time>2021-10-13T14:22:28Z</time>
      </trkpt>
      <trkpt lat="43.42662" lon="6.49136">
        <ele>95</ele>
        <time>2021-10-13T14:22:32Z</time>
      </trkpt>
      <trkpt lat="43.42673" lon="6.49134">
        <ele>92</ele>
        <time>2021-10-13T14:22:40Z</time>
      </trkpt>
      <trkpt lat="43.42676" lon="6.49132">
        <ele>92</ele>
        <time>2021-10-13T14:22:43Z</time>
      </trkpt>
      <trkpt lat="43.4268" lon="6.4913">
        <ele>92</ele>
        <time>2021-10-13T14:22:46Z</time>
      </trkpt>
      <trkpt lat="43.42683" lon="6.49126">
        <ele>92</ele>
        <time>2021-10-13T14:22:49Z</time>
      </trkpt>
      <trkpt lat="43.42686" lon="6.49122">
        <ele>92</ele>
        <time>2021-10-13T14:22:52Z</time>
      </trkpt>
      <trkpt lat="43.42689" lon="6.49118">
        <ele>92</ele>
        <time>2021-10-13T14:22:55Z</time>
      </trkpt>
      <trkpt lat="43.4269" lon="6.49112">
        <ele>92</ele>
        <time>2021-10-13T14:22:58Z</time>
      </trkpt>
      <trkpt lat="43.4269" lon="6.49107">
        <ele>92</ele>
        <time>2021-10-13T14:23:02Z</time>
      </trkpt>
      <trkpt lat="43.42688" lon="6.49092">
        <ele>89</ele>
        <time>2021-10-13T14:23:10Z</time>
      </trkpt>
      <trkpt lat="43.42687" lon="6.49087">
        <ele>89</ele>
        <time>2021-10-13T14:23:13Z</time>
      </trkpt>
      <trkpt lat="43.42688" lon="6.49075">
        <ele>86</ele>
        <time>2021-10-13T14:23:20Z</time>
      </trkpt>
      <trkpt lat="43.42689" lon="6.49069">
        <ele>86</ele>
        <time>2021-10-13T14:23:23Z</time>
      </trkpt>
      <trkpt lat="43.42689" lon="6.49064">
        <ele>86</ele>
        <time>2021-10-13T14:23:26Z</time>
      </trkpt>
      <trkpt lat="43.42691" lon="6.4905">
        <ele>86</ele>
        <time>2021-10-13T14:23:32Z</time>
      </trkpt>
      <trkpt lat="43.42695" lon="6.49047">
        <ele>86</ele>
        <time>2021-10-13T14:23:35Z</time>
      </trkpt>
      <trkpt lat="43.42707" lon="6.49056">
        <ele>87</ele>
        <time>2021-10-13T14:23:47Z</time>
      </trkpt>
      <trkpt lat="43.42712" lon="6.49062">
        <ele>88</ele>
        <time>2021-10-13T14:23:52Z</time>
      </trkpt>
      <trkpt lat="43.42715" lon="6.49067">
        <ele>87</ele>
        <time>2021-10-13T14:23:55Z</time>
      </trkpt>
      <trkpt lat="43.42717" lon="6.49071">
        <ele>88</ele>
        <time>2021-10-13T14:23:58Z</time>
      </trkpt>
      <trkpt lat="43.42722" lon="6.49075">
        <ele>85</ele>
        <time>2021-10-13T14:24:02Z</time>
      </trkpt>
      <trkpt lat="43.42727" lon="6.49086">
        <ele>84</ele>
        <time>2021-10-13T14:24:08Z</time>
      </trkpt>
      <trkpt lat="43.42731" lon="6.4909">
        <ele>85</ele>
        <time>2021-10-13T14:24:11Z</time>
      </trkpt>
      <trkpt lat="43.42737" lon="6.49095">
        <ele>85</ele>
        <time>2021-10-13T14:24:16Z</time>
      </trkpt>
      <trkpt lat="43.42739" lon="6.491">
        <ele>84</ele>
        <time>2021-10-13T14:24:19Z</time>
      </trkpt>
      <trkpt lat="43.42741" lon="6.49105">
        <ele>84</ele>
        <time>2021-10-13T14:24:23Z</time>
      </trkpt>
      <trkpt lat="43.42743" lon="6.49111">
        <ele>85</ele>
        <time>2021-10-13T14:24:26Z</time>
      </trkpt>
      <trkpt lat="43.42744" lon="6.49118">
        <ele>85</ele>
        <time>2021-10-13T14:24:32Z</time>
      </trkpt>
      <trkpt lat="43.42748" lon="6.49125">
        <ele>85</ele>
        <time>2021-10-13T14:24:37Z</time>
      </trkpt>
      <trkpt lat="43.42759" lon="6.49133">
        <ele>87</ele>
        <time>2021-10-13T14:24:46Z</time>
      </trkpt>
      <trkpt lat="43.42773" lon="6.4914">
        <ele>89</ele>
        <time>2021-10-13T14:24:56Z</time>
      </trkpt>
      <trkpt lat="43.42802" lon="6.49136">
        <ele>88</ele>
        <time>2021-10-13T14:25:26Z</time>
      </trkpt>
      <trkpt lat="43.42808" lon="6.49137">
        <ele>88</ele>
        <time>2021-10-13T14:25:31Z</time>
      </trkpt>
      <trkpt lat="43.42812" lon="6.4914">
        <ele>87</ele>
        <time>2021-10-13T14:25:34Z</time>
      </trkpt>
      <trkpt lat="43.42815" lon="6.49144">
        <ele>87</ele>
        <time>2021-10-13T14:25:37Z</time>
      </trkpt>
      <trkpt lat="43.42818" lon="6.49156">
        <ele>89</ele>
        <time>2021-10-13T14:25:47Z</time>
      </trkpt>
      <trkpt lat="43.42817" lon="6.49163">
        <ele>90</ele>
        <time>2021-10-13T14:25:53Z</time>
      </trkpt>
      <trkpt lat="43.42814" lon="6.4917">
        <ele>90</ele>
        <time>2021-10-13T14:25:59Z</time>
      </trkpt>
      <trkpt lat="43.42811" lon="6.49174">
        <ele>90</ele>
        <time>2021-10-13T14:26:04Z</time>
      </trkpt>
      <trkpt lat="43.42802" lon="6.49185">
        <ele>90</ele>
        <time>2021-10-13T14:26:11Z</time>
      </trkpt>
      <trkpt lat="43.428" lon="6.49189">
        <ele>91</ele>
        <time>2021-10-13T14:26:14Z</time>
      </trkpt>
      <trkpt lat="43.42797" lon="6.49193">
        <ele>91</ele>
        <time>2021-10-13T14:26:17Z</time>
      </trkpt>
      <trkpt lat="43.42794" lon="6.49197">
        <ele>91</ele>
        <time>2021-10-13T14:26:20Z</time>
      </trkpt>
      <trkpt lat="43.42791" lon="6.49201">
        <ele>91</ele>
        <time>2021-10-13T14:26:23Z</time>
      </trkpt>
      <trkpt lat="43.42788" lon="6.49205">
        <ele>92</ele>
        <time>2021-10-13T14:26:26Z</time>
      </trkpt>
      <trkpt lat="43.42785" lon="6.49209">
        <ele>92</ele>
        <time>2021-10-13T14:26:29Z</time>
      </trkpt>
      <trkpt lat="43.42781" lon="6.49213">
        <ele>92</ele>
        <time>2021-10-13T14:26:32Z</time>
      </trkpt>
      <trkpt lat="43.42779" lon="6.49218">
        <ele>92</ele>
        <time>2021-10-13T14:26:35Z</time>
      </trkpt>
      <trkpt lat="43.4277" lon="6.49226">
        <ele>91</ele>
        <time>2021-10-13T14:26:43Z</time>
      </trkpt>
      <trkpt lat="43.42768" lon="6.49229">
        <ele>91</ele>
        <time>2021-10-13T14:26:46Z</time>
      </trkpt>
      <trkpt lat="43.42765" lon="6.49232">
        <ele>90</ele>
        <time>2021-10-13T14:26:48Z</time>
      </trkpt>
      <trkpt lat="43.42763" lon="6.49235">
        <ele>90</ele>
        <time>2021-10-13T14:26:50Z</time>
      </trkpt>
      <trkpt lat="43.4276" lon="6.49238">
        <ele>90</ele>
        <time>2021-10-13T14:26:52Z</time>
      </trkpt>
      <trkpt lat="43.42757" lon="6.4924">
        <ele>89</ele>
        <time>2021-10-13T14:26:54Z</time>
      </trkpt>
      <trkpt lat="43.42754" lon="6.49243">
        <ele>90</ele>
        <time>2021-10-13T14:26:57Z</time>
      </trkpt>
      <trkpt lat="43.4275" lon="6.49246">
        <ele>90</ele>
        <time>2021-10-13T14:27:00Z</time>
      </trkpt>
      <trkpt lat="43.42734" lon="6.49259">
        <ele>89</ele>
        <time>2021-10-13T14:27:14Z</time>
      </trkpt>
      <trkpt lat="43.42731" lon="6.49263">
        <ele>90</ele>
        <time>2021-10-13T14:27:17Z</time>
      </trkpt>
      <trkpt lat="43.42729" lon="6.49269">
        <ele>91</ele>
        <time>2021-10-13T14:27:20Z</time>
      </trkpt>
      <trkpt lat="43.42727" lon="6.49277">
        <ele>89</ele>
        <time>2021-10-13T14:27:23Z</time>
      </trkpt>
      <trkpt lat="43.42712" lon="6.493">
        <ele>97</ele>
        <time>2021-10-13T14:27:33Z</time>
      </trkpt>
      <trkpt lat="43.42709" lon="6.4931">
        <ele>100</ele>
        <time>2021-10-13T14:27:36Z</time>
      </trkpt>
      <trkpt lat="43.42709" lon="6.49317">
        <ele>99</ele>
        <time>2021-10-13T14:27:42Z</time>
      </trkpt>
      <trkpt lat="43.42709" lon="6.4932">
        <ele>100</ele>
        <time>2021-10-13T14:28:02Z</time>
      </trkpt>
      <trkpt lat="43.42711" lon="6.49322">
        <ele>100</ele>
        <time>2021-10-13T14:28:33Z</time>
      </trkpt>
      <trkpt lat="43.42712" lon="6.49325">
        <ele>101</ele>
        <time>2021-10-13T14:28:47Z</time>
      </trkpt>
      <trkpt lat="43.42713" lon="6.49328">
        <ele>102</ele>
        <time>2021-10-13T14:28:59Z</time>
      </trkpt>
      <trkpt lat="43.42714" lon="6.49331">
        <ele>103</ele>
        <time>2021-10-13T14:30:45Z</time>
      </trkpt>
      <trkpt lat="43.42716" lon="6.49329">
        <ele>103</ele>
        <time>2021-10-13T14:31:36Z</time>
      </trkpt>
      <trkpt lat="43.42719" lon="6.49328">
        <ele>102</ele>
        <time>2021-10-13T14:31:40Z</time>
      </trkpt>
      <trkpt lat="43.42729" lon="6.49325">
        <ele>101</ele>
        <time>2021-10-13T14:31:51Z</time>
      </trkpt>
      <trkpt lat="43.42734" lon="6.49324">
        <ele>102</ele>
        <time>2021-10-13T14:31:54Z</time>
      </trkpt>
      <trkpt lat="43.42738" lon="6.49324">
        <ele>102</ele>
        <time>2021-10-13T14:31:58Z</time>
      </trkpt>
      <trkpt lat="43.42743" lon="6.49322">
        <ele>101</ele>
        <time>2021-10-13T14:32:01Z</time>
      </trkpt>
      <trkpt lat="43.42748" lon="6.49322">
        <ele>100</ele>
        <time>2021-10-13T14:32:04Z</time>
      </trkpt>
      <trkpt lat="43.4276" lon="6.4932">
        <ele>101</ele>
        <time>2021-10-13T14:32:13Z</time>
      </trkpt>
      <trkpt lat="43.42764" lon="6.49317">
        <ele>102</ele>
        <time>2021-10-13T14:32:16Z</time>
      </trkpt>
      <trkpt lat="43.42774" lon="6.49312">
        <ele>102</ele>
        <time>2021-10-13T14:32:24Z</time>
      </trkpt>
      <trkpt lat="43.42789" lon="6.49308">
        <ele>104</ele>
        <time>2021-10-13T14:32:34Z</time>
      </trkpt>
      <trkpt lat="43.42829" lon="6.49312">
        <ele>105</ele>
        <time>2021-10-13T14:33:06Z</time>
      </trkpt>
      <trkpt lat="43.42844" lon="6.49312">
        <ele>106</ele>
        <time>2021-10-13T14:33:15Z</time>
      </trkpt>
      <trkpt lat="43.42848" lon="6.49314">
        <ele>106</ele>
        <time>2021-10-13T14:33:18Z</time>
      </trkpt>
      <trkpt lat="43.42852" lon="6.49315">
        <ele>106</ele>
        <time>2021-10-13T14:33:21Z</time>
      </trkpt>
      <trkpt lat="43.42869" lon="6.49312">
        <ele>108</ele>
        <time>2021-10-13T14:33:33Z</time>
      </trkpt>
      <trkpt lat="43.42872" lon="6.49309">
        <ele>108</ele>
        <time>2021-10-13T14:33:36Z</time>
      </trkpt>
      <trkpt lat="43.42876" lon="6.49307">
        <ele>107</ele>
        <time>2021-10-13T14:33:39Z</time>
      </trkpt>
      <trkpt lat="43.4288" lon="6.49308">
        <ele>108</ele>
        <time>2021-10-13T14:33:42Z</time>
      </trkpt>
      <trkpt lat="43.42906" lon="6.49325">
        <ele>106</ele>
        <time>2021-10-13T14:34:01Z</time>
      </trkpt>
      <trkpt lat="43.42909" lon="6.49328">
        <ele>105</ele>
        <time>2021-10-13T14:34:04Z</time>
      </trkpt>
      <trkpt lat="43.42921" lon="6.49346">
        <ele>109</ele>
        <time>2021-10-13T14:34:17Z</time>
      </trkpt>
      <trkpt lat="43.42925" lon="6.4935">
        <ele>110</ele>
        <time>2021-10-13T14:34:20Z</time>
      </trkpt>
      <trkpt lat="43.4293" lon="6.49352">
        <ele>110</ele>
        <time>2021-10-13T14:34:23Z</time>
      </trkpt>
      <trkpt lat="43.42934" lon="6.49352">
        <ele>109</ele>
        <time>2021-10-13T14:34:27Z</time>
      </trkpt>
      <trkpt lat="43.42939" lon="6.49354">
        <ele>108</ele>
        <time>2021-10-13T14:34:31Z</time>
      </trkpt>
      <trkpt lat="43.42942" lon="6.49353">
        <ele>108</ele>
        <time>2021-10-13T14:34:34Z</time>
      </trkpt>
      <trkpt lat="43.42947" lon="6.49353">
        <ele>107</ele>
        <time>2021-10-13T14:34:38Z</time>
      </trkpt>
      <trkpt lat="43.42956" lon="6.4935">
        <ele>107</ele>
        <time>2021-10-13T14:34:46Z</time>
      </trkpt>
      <trkpt lat="43.42969" lon="6.49339">
        <ele>105</ele>
        <time>2021-10-13T14:34:54Z</time>
      </trkpt>
      <trkpt lat="43.42973" lon="6.49336">
        <ele>105</ele>
        <time>2021-10-13T14:35:03Z</time>
      </trkpt>
      <trkpt lat="43.42976" lon="6.4933">
        <ele>106</ele>
        <time>2021-10-13T14:35:06Z</time>
      </trkpt>
      <trkpt lat="43.42979" lon="6.49323">
        <ele>105</ele>
        <time>2021-10-13T14:35:10Z</time>
      </trkpt>
      <trkpt lat="43.42981" lon="6.49317">
        <ele>105</ele>
        <time>2021-10-13T14:35:12Z</time>
      </trkpt>
      <trkpt lat="43.43" lon="6.49287">
        <ele>106</ele>
        <time>2021-10-13T14:35:36Z</time>
      </trkpt>
      <trkpt lat="43.43011" lon="6.49279">
        <ele>107</ele>
        <time>2021-10-13T14:35:42Z</time>
      </trkpt>
      <trkpt lat="43.43015" lon="6.49277">
        <ele>107</ele>
        <time>2021-10-13T14:35:45Z</time>
      </trkpt>
      <trkpt lat="43.43025" lon="6.4928">
        <ele>109</ele>
        <time>2021-10-13T14:35:52Z</time>
      </trkpt>
      <trkpt lat="43.43028" lon="6.49283">
        <ele>109</ele>
        <time>2021-10-13T14:35:55Z</time>
      </trkpt>
      <trkpt lat="43.43035" lon="6.49292">
        <ele>109</ele>
        <time>2021-10-13T14:36:02Z</time>
      </trkpt>
      <trkpt lat="43.43037" lon="6.49298">
        <ele>109</ele>
        <time>2021-10-13T14:36:05Z</time>
      </trkpt>
      <trkpt lat="43.43036" lon="6.49305">
        <ele>110</ele>
        <time>2021-10-13T14:36:14Z</time>
      </trkpt>
      <trkpt lat="43.43037" lon="6.49318">
        <ele>109</ele>
        <time>2021-10-13T14:36:22Z</time>
      </trkpt>
      <trkpt lat="43.43038" lon="6.49323">
        <ele>108</ele>
        <time>2021-10-13T14:36:24Z</time>
      </trkpt>
      <trkpt lat="43.4304" lon="6.49335">
        <ele>108</ele>
        <time>2021-10-13T14:36:29Z</time>
      </trkpt>
      <trkpt lat="43.43042" lon="6.49342">
        <ele>107</ele>
        <time>2021-10-13T14:36:33Z</time>
      </trkpt>
      <trkpt lat="43.43043" lon="6.49348">
        <ele>107</ele>
        <time>2021-10-13T14:36:36Z</time>
      </trkpt>
      <trkpt lat="43.43045" lon="6.49353">
        <ele>107</ele>
        <time>2021-10-13T14:36:39Z</time>
      </trkpt>
      <trkpt lat="43.43048" lon="6.49356">
        <ele>107</ele>
        <time>2021-10-13T14:36:42Z</time>
      </trkpt>
      <trkpt lat="43.43052" lon="6.49361">
        <ele>105</ele>
        <time>2021-10-13T14:36:46Z</time>
      </trkpt>
      <trkpt lat="43.43057" lon="6.49368">
        <ele>104</ele>
        <time>2021-10-13T14:36:51Z</time>
      </trkpt>
      <trkpt lat="43.4306" lon="6.49373">
        <ele>104</ele>
        <time>2021-10-13T14:36:54Z</time>
      </trkpt>
      <trkpt lat="43.43063" lon="6.49378">
        <ele>103</ele>
        <time>2021-10-13T14:36:58Z</time>
      </trkpt>
      <trkpt lat="43.43068" lon="6.49385">
        <ele>103</ele>
        <time>2021-10-13T14:37:03Z</time>
      </trkpt>
      <trkpt lat="43.43071" lon="6.49389">
        <ele>103</ele>
        <time>2021-10-13T14:37:06Z</time>
      </trkpt>
      <trkpt lat="43.43081" lon="6.49397">
        <ele>102</ele>
        <time>2021-10-13T14:37:15Z</time>
      </trkpt>
      <trkpt lat="43.43085" lon="6.49401">
        <ele>102</ele>
        <time>2021-10-13T14:37:18Z</time>
      </trkpt>
      <trkpt lat="43.43088" lon="6.49403">
        <ele>102</ele>
        <time>2021-10-13T14:37:21Z</time>
      </trkpt>
      <trkpt lat="43.43091" lon="6.49408">
        <ele>101</ele>
        <time>2021-10-13T14:37:24Z</time>
      </trkpt>
      <trkpt lat="43.43095" lon="6.49412">
        <ele>100</ele>
        <time>2021-10-13T14:37:27Z</time>
      </trkpt>
      <trkpt lat="43.43103" lon="6.49425">
        <ele>100</ele>
        <time>2021-10-13T14:37:35Z</time>
      </trkpt>
      <trkpt lat="43.43107" lon="6.49431">
        <ele>101</ele>
        <time>2021-10-13T14:37:39Z</time>
      </trkpt>
      <trkpt lat="43.4311" lon="6.49433">
        <ele>101</ele>
        <time>2021-10-13T14:37:41Z</time>
      </trkpt>
      <trkpt lat="43.43114" lon="6.49434">
        <ele>102</ele>
        <time>2021-10-13T14:37:45Z</time>
      </trkpt>
      <trkpt lat="43.43118" lon="6.49433">
        <ele>102</ele>
        <time>2021-10-13T14:37:48Z</time>
      </trkpt>
      <trkpt lat="43.43122" lon="6.49433">
        <ele>103</ele>
        <time>2021-10-13T14:37:51Z</time>
      </trkpt>
      <trkpt lat="43.43128" lon="6.4943">
        <ele>104</ele>
        <time>2021-10-13T14:37:55Z</time>
      </trkpt>
      <trkpt lat="43.43131" lon="6.49428">
        <ele>104</ele>
        <time>2021-10-13T14:37:58Z</time>
      </trkpt>
      <trkpt lat="43.43156" lon="6.49416">
        <ele>105</ele>
        <time>2021-10-13T14:38:15Z</time>
      </trkpt>
      <trkpt lat="43.4316" lon="6.49414">
        <ele>106</ele>
        <time>2021-10-13T14:38:18Z</time>
      </trkpt>
      <trkpt lat="43.43163" lon="6.49412">
        <ele>106</ele>
        <time>2021-10-13T14:38:21Z</time>
      </trkpt>
      <trkpt lat="43.43166" lon="6.4941">
        <ele>107</ele>
        <time>2021-10-13T14:38:24Z</time>
      </trkpt>
      <trkpt lat="43.4317" lon="6.49407">
        <ele>106</ele>
        <time>2021-10-13T14:38:27Z</time>
      </trkpt>
      <trkpt lat="43.43173" lon="6.49405">
        <ele>106</ele>
        <time>2021-10-13T14:38:30Z</time>
      </trkpt>
      <trkpt lat="43.4318" lon="6.49396">
        <ele>107</ele>
        <time>2021-10-13T14:38:37Z</time>
      </trkpt>
      <trkpt lat="43.43184" lon="6.49392">
        <ele>107</ele>
        <time>2021-10-13T14:38:40Z</time>
      </trkpt>
      <trkpt lat="43.43189" lon="6.49385">
        <ele>108</ele>
        <time>2021-10-13T14:38:45Z</time>
      </trkpt>
      <trkpt lat="43.43192" lon="6.4938">
        <ele>107</ele>
        <time>2021-10-13T14:38:48Z</time>
      </trkpt>
      <trkpt lat="43.43194" lon="6.49376">
        <ele>106</ele>
        <time>2021-10-13T14:38:51Z</time>
      </trkpt>
      <trkpt lat="43.43197" lon="6.49372">
        <ele>106</ele>
        <time>2021-10-13T14:38:55Z</time>
      </trkpt>
      <trkpt lat="43.43201" lon="6.49369">
        <ele>106</ele>
        <time>2021-10-13T14:38:58Z</time>
      </trkpt>
      <trkpt lat="43.43215" lon="6.49357">
        <ele>107</ele>
        <time>2021-10-13T14:39:09Z</time>
      </trkpt>
      <trkpt lat="43.43217" lon="6.49353">
        <ele>107</ele>
        <time>2021-10-13T14:39:11Z</time>
      </trkpt>
      <trkpt lat="43.43225" lon="6.49345">
        <ele>107</ele>
        <time>2021-10-13T14:39:18Z</time>
      </trkpt>
      <trkpt lat="43.43235" lon="6.49326">
        <ele>108</ele>
        <time>2021-10-13T14:39:30Z</time>
      </trkpt>
      <trkpt lat="43.43237" lon="6.49321">
        <ele>108</ele>
        <time>2021-10-13T14:39:33Z</time>
      </trkpt>
      <trkpt lat="43.43244" lon="6.49317">
        <ele>108</ele>
        <time>2021-10-13T14:39:37Z</time>
      </trkpt>
      <trkpt lat="43.43251" lon="6.49315">
        <ele>109</ele>
        <time>2021-10-13T14:39:43Z</time>
      </trkpt>
      <trkpt lat="43.43267" lon="6.49328">
        <ele>110</ele>
        <time>2021-10-13T14:39:56Z</time>
      </trkpt>
      <trkpt lat="43.4327" lon="6.49331">
        <ele>111</ele>
        <time>2021-10-13T14:39:58Z</time>
      </trkpt>
      <trkpt lat="43.43286" lon="6.49341">
        <ele>112</ele>
        <time>2021-10-13T14:40:11Z</time>
      </trkpt>
      <trkpt lat="43.4329" lon="6.49345">
        <ele>111</ele>
        <time>2021-10-13T14:40:15Z</time>
      </trkpt>
      <trkpt lat="43.43291" lon="6.49352">
        <ele>107</ele>
        <time>2021-10-13T14:40:19Z</time>
      </trkpt>
      <trkpt lat="43.43297" lon="6.4936">
        <ele>105</ele>
        <time>2021-10-13T14:40:27Z</time>
      </trkpt>
      <trkpt lat="43.43301" lon="6.49361">
        <ele>107</ele>
        <time>2021-10-13T14:40:30Z</time>
      </trkpt>
      <trkpt lat="43.43304" lon="6.49364">
        <ele>108</ele>
        <time>2021-10-13T14:40:33Z</time>
      </trkpt>
      <trkpt lat="43.43307" lon="6.49367">
        <ele>110</ele>
        <time>2021-10-13T14:40:39Z</time>
      </trkpt>
      <trkpt lat="43.43309" lon="6.49368">
        <ele>112</ele>
        <time>2021-10-13T14:41:14Z</time>
      </trkpt>
      <trkpt lat="43.43311" lon="6.4937">
        <ele>112</ele>
        <time>2021-10-13T14:42:12Z</time>
      </trkpt>
      <trkpt lat="43.43312" lon="6.49373">
        <ele>118</ele>
        <time>2021-10-13T14:46:39Z</time>
      </trkpt>
      <trkpt lat="43.43315" lon="6.49372">
        <ele>118</ele>
        <time>2021-10-13T14:47:27Z</time>
      </trkpt>
      <trkpt lat="43.4332" lon="6.4937">
        <ele>118</ele>
        <time>2021-10-13T14:47:58Z</time>
      </trkpt>
      <trkpt lat="43.43324" lon="6.49373">
        <ele>120</ele>
        <time>2021-10-13T14:48:04Z</time>
      </trkpt>
      <trkpt lat="43.43325" lon="6.49377">
        <ele>120</ele>
        <time>2021-10-13T14:48:10Z</time>
      </trkpt>
      <trkpt lat="43.43328" lon="6.49381">
        <ele>118</ele>
        <time>2021-10-13T14:48:17Z</time>
      </trkpt>
      <trkpt lat="43.43325" lon="6.49376">
        <ele>116</ele>
        <time>2021-10-13T14:50:45Z</time>
      </trkpt>
      <trkpt lat="43.43329" lon="6.49374">
        <ele>116</ele>
        <time>2021-10-13T14:50:51Z</time>
      </trkpt>
      <trkpt lat="43.43334" lon="6.49378">
        <ele>115</ele>
        <time>2021-10-13T14:51:03Z</time>
      </trkpt>
      <trkpt lat="43.43338" lon="6.49382">
        <ele>115</ele>
        <time>2021-10-13T14:51:06Z</time>
      </trkpt>
      <trkpt lat="43.4335" lon="6.49394">
        <ele>113</ele>
        <time>2021-10-13T14:51:15Z</time>
      </trkpt>
      <trkpt lat="43.43354" lon="6.49399">
        <ele>113</ele>
        <time>2021-10-13T14:51:18Z</time>
      </trkpt>
      <trkpt lat="43.43356" lon="6.49403">
        <ele>112</ele>
        <time>2021-10-13T14:51:21Z</time>
      </trkpt>
      <trkpt lat="43.4336" lon="6.49408">
        <ele>112</ele>
        <time>2021-10-13T14:51:24Z</time>
      </trkpt>
      <trkpt lat="43.43363" lon="6.49413">
        <ele>111</ele>
        <time>2021-10-13T14:51:27Z</time>
      </trkpt>
      <trkpt lat="43.43365" lon="6.49417">
        <ele>112</ele>
        <time>2021-10-13T14:51:30Z</time>
      </trkpt>
      <trkpt lat="43.43374" lon="6.49434">
        <ele>116</ele>
        <time>2021-10-13T14:51:45Z</time>
      </trkpt>
      <trkpt lat="43.43375" lon="6.49439">
        <ele>117</ele>
        <time>2021-10-13T14:51:49Z</time>
      </trkpt>
      <trkpt lat="43.4338" lon="6.49453">
        <ele>119</ele>
        <time>2021-10-13T14:51:57Z</time>
      </trkpt>
      <trkpt lat="43.43381" lon="6.49457">
        <ele>119</ele>
        <time>2021-10-13T14:52:01Z</time>
      </trkpt>
      <trkpt lat="43.4338" lon="6.4947">
        <ele>119</ele>
        <time>2021-10-13T14:52:09Z</time>
      </trkpt>
      <trkpt lat="43.4338" lon="6.49476">
        <ele>120</ele>
        <time>2021-10-13T14:52:12Z</time>
      </trkpt>
      <trkpt lat="43.4338" lon="6.49481">
        <ele>120</ele>
        <time>2021-10-13T14:52:15Z</time>
      </trkpt>
      <trkpt lat="43.43379" lon="6.49487">
        <ele>119</ele>
        <time>2021-10-13T14:52:19Z</time>
      </trkpt>
      <trkpt lat="43.43379" lon="6.49493">
        <ele>119</ele>
        <time>2021-10-13T14:52:23Z</time>
      </trkpt>
      <trkpt lat="43.43379" lon="6.49499">
        <ele>119</ele>
        <time>2021-10-13T14:52:26Z</time>
      </trkpt>
      <trkpt lat="43.4338" lon="6.49505">
        <ele>120</ele>
        <time>2021-10-13T14:52:29Z</time>
      </trkpt>
      <trkpt lat="43.43381" lon="6.49512">
        <ele>119</ele>
        <time>2021-10-13T14:52:33Z</time>
      </trkpt>
      <trkpt lat="43.43381" lon="6.49524">
        <ele>120</ele>
        <time>2021-10-13T14:52:41Z</time>
      </trkpt>
      <trkpt lat="43.43382" lon="6.49532">
        <ele>120</ele>
        <time>2021-10-13T14:52:46Z</time>
      </trkpt>
      <trkpt lat="43.43381" lon="6.49538">
        <ele>120</ele>
        <time>2021-10-13T14:52:49Z</time>
      </trkpt>
      <trkpt lat="43.4338" lon="6.49544">
        <ele>119</ele>
        <time>2021-10-13T14:52:52Z</time>
      </trkpt>
      <trkpt lat="43.4338" lon="6.49549">
        <ele>119</ele>
        <time>2021-10-13T14:52:55Z</time>
      </trkpt>
      <trkpt lat="43.4338" lon="6.49555">
        <ele>120</ele>
        <time>2021-10-13T14:52:58Z</time>
      </trkpt>
      <trkpt lat="43.43381" lon="6.49568">
        <ele>120</ele>
        <time>2021-10-13T14:53:04Z</time>
      </trkpt>
      <trkpt lat="43.43379" lon="6.49575">
        <ele>120</ele>
        <time>2021-10-13T14:53:09Z</time>
      </trkpt>
      <trkpt lat="43.4338" lon="6.49584">
        <ele>120</ele>
        <time>2021-10-13T14:53:15Z</time>
      </trkpt>
      <trkpt lat="43.4338" lon="6.4959">
        <ele>121</ele>
        <time>2021-10-13T14:53:18Z</time>
      </trkpt>
      <trkpt lat="43.43379" lon="6.49605">
        <ele>121</ele>
        <time>2021-10-13T14:53:27Z</time>
      </trkpt>
      <trkpt lat="43.43382" lon="6.4962">
        <ele>121</ele>
        <time>2021-10-13T14:53:36Z</time>
      </trkpt>
      <trkpt lat="43.4338" lon="6.49638">
        <ele>121</ele>
        <time>2021-10-13T14:53:43Z</time>
      </trkpt>
      <trkpt lat="43.43377" lon="6.49648">
        <ele>121</ele>
        <time>2021-10-13T14:53:47Z</time>
      </trkpt>
      <trkpt lat="43.43374" lon="6.49654">
        <ele>121</ele>
        <time>2021-10-13T14:53:50Z</time>
      </trkpt>
      <trkpt lat="43.43362" lon="6.49674">
        <ele>120</ele>
        <time>2021-10-13T14:54:02Z</time>
      </trkpt>
      <trkpt lat="43.4335" lon="6.49689">
        <ele>121</ele>
        <time>2021-10-13T14:54:12Z</time>
      </trkpt>
      <trkpt lat="43.43347" lon="6.49694">
        <ele>121</ele>
        <time>2021-10-13T14:54:15Z</time>
      </trkpt>
      <trkpt lat="43.43343" lon="6.497">
        <ele>121</ele>
        <time>2021-10-13T14:54:19Z</time>
      </trkpt>
      <trkpt lat="43.43336" lon="6.49707">
        <ele>121</ele>
        <time>2021-10-13T14:54:25Z</time>
      </trkpt>
      <trkpt lat="43.43333" lon="6.49708">
        <ele>120</ele>
        <time>2021-10-13T14:54:27Z</time>
      </trkpt>
      <trkpt lat="43.43329" lon="6.49711">
        <ele>121</ele>
        <time>2021-10-13T14:54:30Z</time>
      </trkpt>
      <trkpt lat="43.43326" lon="6.49712">
        <ele>121</ele>
        <time>2021-10-13T14:54:32Z</time>
      </trkpt>
      <trkpt lat="43.43322" lon="6.49715">
        <ele>121</ele>
        <time>2021-10-13T14:54:34Z</time>
      </trkpt>
      <trkpt lat="43.433" lon="6.4973">
        <ele>123</ele>
        <time>2021-10-13T14:54:47Z</time>
      </trkpt>
      <trkpt lat="43.43297" lon="6.49735">
        <ele>123</ele>
        <time>2021-10-13T14:54:50Z</time>
      </trkpt>
      <trkpt lat="43.43295" lon="6.49739">
        <ele>123</ele>
        <time>2021-10-13T14:54:53Z</time>
      </trkpt>
      <trkpt lat="43.43291" lon="6.49747">
        <ele>123</ele>
        <time>2021-10-13T14:54:58Z</time>
      </trkpt>
      <trkpt lat="43.4328" lon="6.498">
        <ele>127</ele>
        <time>2021-10-13T14:55:22Z</time>
      </trkpt>
      <trkpt lat="43.43278" lon="6.49817">
        <ele>127</ele>
        <time>2021-10-13T14:55:30Z</time>
      </trkpt>
      <trkpt lat="43.43278" lon="6.49824">
        <ele>127</ele>
        <time>2021-10-13T14:55:33Z</time>
      </trkpt>
      <trkpt lat="43.43277" lon="6.49835">
        <ele>126</ele>
        <time>2021-10-13T14:55:38Z</time>
      </trkpt>
      <trkpt lat="43.43277" lon="6.49841">
        <ele>126</ele>
        <time>2021-10-13T14:55:41Z</time>
      </trkpt>
      <trkpt lat="43.43262" lon="6.49896">
        <ele>126</ele>
        <time>2021-10-13T14:56:05Z</time>
      </trkpt>
      <trkpt lat="43.43256" lon="6.49909">
        <ele>125</ele>
        <time>2021-10-13T14:56:13Z</time>
      </trkpt>
      <trkpt lat="43.43253" lon="6.49923">
        <ele>125</ele>
        <time>2021-10-13T14:56:20Z</time>
      </trkpt>
      <trkpt lat="43.43252" lon="6.49928">
        <ele>124</ele>
        <time>2021-10-13T14:56:23Z</time>
      </trkpt>
      <trkpt lat="43.43253" lon="6.49932">
        <ele>124</ele>
        <time>2021-10-13T14:56:26Z</time>
      </trkpt>
      <trkpt lat="43.43261" lon="6.49944">
        <ele>122</ele>
        <time>2021-10-13T14:56:39Z</time>
      </trkpt>
      <trkpt lat="43.43298" lon="6.49955">
        <ele>123</ele>
        <time>2021-10-13T14:57:03Z</time>
      </trkpt>
      <trkpt lat="43.43348" lon="6.49951">
        <ele>120</ele>
        <time>2021-10-13T14:57:34Z</time>
      </trkpt>
      <trkpt lat="43.43365" lon="6.49948">
        <ele>119</ele>
        <time>2021-10-13T14:57:45Z</time>
      </trkpt>
      <trkpt lat="43.43414" lon="6.49956">
        <ele>115</ele>
        <time>2021-10-13T14:58:16Z</time>
      </trkpt>
      <trkpt lat="43.43423" lon="6.49956">
        <ele>114</ele>
        <time>2021-10-13T14:58:22Z</time>
      </trkpt>
      <trkpt lat="43.43441" lon="6.49963">
        <ele>112</ele>
        <time>2021-10-13T14:58:34Z</time>
      </trkpt>
      <trkpt lat="43.43472" lon="6.49989">
        <ele>108</ele>
        <time>2021-10-13T14:58:58Z</time>
      </trkpt>
      <trkpt lat="43.43487" lon="6.50009">
        <ele>108</ele>
        <time>2021-10-13T14:59:09Z</time>
      </trkpt>
      <trkpt lat="43.43489" lon="6.50013">
        <ele>109</ele>
        <time>2021-10-13T14:59:11Z</time>
      </trkpt>
      <trkpt lat="43.43498" lon="6.50024">
        <ele>109</ele>
        <time>2021-10-13T14:59:19Z</time>
      </trkpt>
      <trkpt lat="43.43505" lon="6.50029">
        <ele>109</ele>
        <time>2021-10-13T14:59:24Z</time>
      </trkpt>
      <trkpt lat="43.43512" lon="6.50034">
        <ele>108</ele>
        <time>2021-10-13T14:59:29Z</time>
      </trkpt>
      <trkpt lat="43.4352" lon="6.50047">
        <ele>106</ele>
        <time>2021-10-13T14:59:38Z</time>
      </trkpt>
      <trkpt lat="43.43523" lon="6.50058">
        <ele>105</ele>
        <time>2021-10-13T14:59:44Z</time>
      </trkpt>
      <trkpt lat="43.43525" lon="6.50077">
        <ele>104</ele>
        <time>2021-10-13T14:59:53Z</time>
      </trkpt>
      <trkpt lat="43.43529" lon="6.50094">
        <ele>102</ele>
        <time>2021-10-13T15:00:02Z</time>
      </trkpt>
      <trkpt lat="43.43548" lon="6.50119">
        <ele>99</ele>
        <time>2021-10-13T15:00:19Z</time>
      </trkpt>
      <trkpt lat="43.43556" lon="6.50129">
        <ele>99</ele>
        <time>2021-10-13T15:00:25Z</time>
      </trkpt>
      <trkpt lat="43.4356" lon="6.50132">
        <ele>99</ele>
        <time>2021-10-13T15:00:28Z</time>
      </trkpt>
      <trkpt lat="43.43563" lon="6.50138">
        <ele>96</ele>
        <time>2021-10-13T15:00:31Z</time>
      </trkpt>
      <trkpt lat="43.43565" lon="6.50147">
        <ele>91</ele>
        <time>2021-10-13T15:00:34Z</time>
      </trkpt>
      <trkpt lat="43.43562" lon="6.50155">
        <ele>87</ele>
        <time>2021-10-13T15:00:39Z</time>
      </trkpt>
      <trkpt lat="43.43564" lon="6.50162">
        <ele>87</ele>
        <time>2021-10-13T15:00:42Z</time>
      </trkpt>
      <trkpt lat="43.43571" lon="6.50178">
        <ele>87</ele>
        <time>2021-10-13T15:00:50Z</time>
      </trkpt>
      <trkpt lat="43.43573" lon="6.50186">
        <ele>87</ele>
        <time>2021-10-13T15:00:53Z</time>
      </trkpt>
      <trkpt lat="43.43576" lon="6.50195">
        <ele>85</ele>
        <time>2021-10-13T15:00:57Z</time>
      </trkpt>
      <trkpt lat="43.43577" lon="6.50201">
        <ele>85</ele>
        <time>2021-10-13T15:01:00Z</time>
      </trkpt>
      <trkpt lat="43.43576" lon="6.50219">
        <ele>87</ele>
        <time>2021-10-13T15:01:08Z</time>
      </trkpt>
      <trkpt lat="43.43576" lon="6.50224">
        <ele>87</ele>
        <time>2021-10-13T15:01:10Z</time>
      </trkpt>
      <trkpt lat="43.43578" lon="6.5023">
        <ele>85</ele>
        <time>2021-10-13T15:01:13Z</time>
      </trkpt>
      <trkpt lat="43.43577" lon="6.50237">
        <ele>85</ele>
        <time>2021-10-13T15:01:17Z</time>
      </trkpt>
      <trkpt lat="43.43585" lon="6.50253">
        <ele>87</ele>
        <time>2021-10-13T15:01:26Z</time>
      </trkpt>
      <trkpt lat="43.43588" lon="6.50256">
        <ele>88</ele>
        <time>2021-10-13T15:01:29Z</time>
      </trkpt>
      <trkpt lat="43.43588" lon="6.50263">
        <ele>86</ele>
        <time>2021-10-13T15:01:34Z</time>
      </trkpt>
      <trkpt lat="43.43591" lon="6.50269">
        <ele>86</ele>
        <time>2021-10-13T15:01:37Z</time>
      </trkpt>
      <trkpt lat="43.43599" lon="6.50279">
        <ele>86</ele>
        <time>2021-10-13T15:01:43Z</time>
      </trkpt>
      <trkpt lat="43.43603" lon="6.50292">
        <ele>84</ele>
        <time>2021-10-13T15:01:49Z</time>
      </trkpt>
      <trkpt lat="43.43606" lon="6.50298">
        <ele>83</ele>
        <time>2021-10-13T15:01:52Z</time>
      </trkpt>
      <trkpt lat="43.43609" lon="6.50303">
        <ele>80</ele>
        <time>2021-10-13T15:01:54Z</time>
      </trkpt>
      <trkpt lat="43.43616" lon="6.50317">
        <ele>81</ele>
        <time>2021-10-13T15:02:00Z</time>
      </trkpt>
      <trkpt lat="43.43618" lon="6.50328">
        <ele>82</ele>
        <time>2021-10-13T15:02:05Z</time>
      </trkpt>
      <trkpt lat="43.43617" lon="6.50345">
        <ele>78</ele>
        <time>2021-10-13T15:02:12Z</time>
      </trkpt>
      <trkpt lat="43.43618" lon="6.50354">
        <ele>77</ele>
        <time>2021-10-13T15:02:17Z</time>
      </trkpt>
      <trkpt lat="43.43621" lon="6.50361">
        <ele>75</ele>
        <time>2021-10-13T15:02:20Z</time>
      </trkpt>
      <trkpt lat="43.43621" lon="6.50368">
        <ele>75</ele>
        <time>2021-10-13T15:02:23Z</time>
      </trkpt>
      <trkpt lat="43.43616" lon="6.50371">
        <ele>74</ele>
        <time>2021-10-13T15:02:27Z</time>
      </trkpt>
      <trkpt lat="43.43619" lon="6.50378">
        <ele>74</ele>
        <time>2021-10-13T15:02:30Z</time>
      </trkpt>
      <trkpt lat="43.4362" lon="6.50387">
        <ele>72</ele>
        <time>2021-10-13T15:02:34Z</time>
      </trkpt>
      <trkpt lat="43.43623" lon="6.50394">
        <ele>72</ele>
        <time>2021-10-13T15:02:39Z</time>
      </trkpt>
      <trkpt lat="43.43633" lon="6.50427">
        <ele>75</ele>
        <time>2021-10-13T15:02:55Z</time>
      </trkpt>
      <trkpt lat="43.43635" lon="6.50431">
        <ele>75</ele>
        <time>2021-10-13T15:02:57Z</time>
      </trkpt>
      <trkpt lat="43.43637" lon="6.50434">
        <ele>75</ele>
        <time>2021-10-13T15:02:59Z</time>
      </trkpt>
      <trkpt lat="43.43645" lon="6.50453">
        <ele>72</ele>
        <time>2021-10-13T15:03:07Z</time>
      </trkpt>
      <trkpt lat="43.43656" lon="6.5048">
        <ele>70</ele>
        <time>2021-10-13T15:03:20Z</time>
      </trkpt>
      <trkpt lat="43.43659" lon="6.50484">
        <ele>70</ele>
        <time>2021-10-13T15:03:23Z</time>
      </trkpt>
      <trkpt lat="43.4366" lon="6.50491">
        <ele>69</ele>
        <time>2021-10-13T15:03:27Z</time>
      </trkpt>
      <trkpt lat="43.43662" lon="6.50502">
        <ele>66</ele>
        <time>2021-10-13T15:03:32Z</time>
      </trkpt>
      <trkpt lat="43.43663" lon="6.5051">
        <ele>66</ele>
        <time>2021-10-13T15:03:35Z</time>
      </trkpt>
      <trkpt lat="43.43666" lon="6.50516">
        <ele>67</ele>
        <time>2021-10-13T15:03:38Z</time>
      </trkpt>
      <trkpt lat="43.43666" lon="6.50523">
        <ele>67</ele>
        <time>2021-10-13T15:03:43Z</time>
      </trkpt>
      <trkpt lat="43.43666" lon="6.50528">
        <ele>67</ele>
        <time>2021-10-13T15:03:45Z</time>
      </trkpt>
      <trkpt lat="43.43664" lon="6.50538">
        <ele>67</ele>
        <time>2021-10-13T15:03:49Z</time>
      </trkpt>
      <trkpt lat="43.43661" lon="6.50544">
        <ele>65</ele>
        <time>2021-10-13T15:03:52Z</time>
      </trkpt>
      <trkpt lat="43.43661" lon="6.50551">
        <ele>64</ele>
        <time>2021-10-13T15:03:54Z</time>
      </trkpt>
      <trkpt lat="43.43662" lon="6.5057">
        <ele>63</ele>
        <time>2021-10-13T15:04:02Z</time>
      </trkpt>
      <trkpt lat="43.43662" lon="6.50577">
        <ele>63</ele>
        <time>2021-10-13T15:04:05Z</time>
      </trkpt>
      <trkpt lat="43.43662" lon="6.50597">
        <ele>63</ele>
        <time>2021-10-13T15:04:15Z</time>
      </trkpt>
      <trkpt lat="43.43662" lon="6.50604">
        <ele>61</ele>
        <time>2021-10-13T15:04:18Z</time>
      </trkpt>
      <trkpt lat="43.43661" lon="6.5061">
        <ele>61</ele>
        <time>2021-10-13T15:04:21Z</time>
      </trkpt>
      <trkpt lat="43.43658" lon="6.50615">
        <ele>61</ele>
        <time>2021-10-13T15:04:23Z</time>
      </trkpt>
      <trkpt lat="43.43657" lon="6.50621">
        <ele>62</ele>
        <time>2021-10-13T15:04:25Z</time>
      </trkpt>
      <trkpt lat="43.43655" lon="6.50635">
        <ele>62</ele>
        <time>2021-10-13T15:04:32Z</time>
      </trkpt>
      <trkpt lat="43.43654" lon="6.50638">
        <ele>63</ele>
        <time>2021-10-13T15:04:34Z</time>
      </trkpt>
      <trkpt lat="43.43651" lon="6.50647">
        <ele>63</ele>
        <time>2021-10-13T15:04:38Z</time>
      </trkpt>
      <trkpt lat="43.43648" lon="6.50663">
        <ele>63</ele>
        <time>2021-10-13T15:04:45Z</time>
      </trkpt>
      <trkpt lat="43.43638" lon="6.50678">
        <ele>60</ele>
        <time>2021-10-13T15:04:54Z</time>
      </trkpt>
      <trkpt lat="43.43634" lon="6.50678">
        <ele>58</ele>
        <time>2021-10-13T15:04:57Z</time>
      </trkpt>
      <trkpt lat="43.43631" lon="6.5068">
        <ele>57</ele>
        <time>2021-10-13T15:04:59Z</time>
      </trkpt>
      <trkpt lat="43.43629" lon="6.50683">
        <ele>58</ele>
        <time>2021-10-13T15:05:01Z</time>
      </trkpt>
      <trkpt lat="43.43626" lon="6.50687">
        <ele>58</ele>
        <time>2021-10-13T15:05:03Z</time>
      </trkpt>
      <trkpt lat="43.43624" lon="6.50691">
        <ele>58</ele>
        <time>2021-10-13T15:05:05Z</time>
      </trkpt>
      <trkpt lat="43.43624" lon="6.50708">
        <ele>59</ele>
        <time>2021-10-13T15:05:12Z</time>
      </trkpt>
      <trkpt lat="43.43625" lon="6.50716">
        <ele>59</ele>
        <time>2021-10-13T15:05:16Z</time>
      </trkpt>
      <trkpt lat="43.43631" lon="6.50736">
        <ele>57</ele>
        <time>2021-10-13T15:05:25Z</time>
      </trkpt>
      <trkpt lat="43.43636" lon="6.50744">
        <ele>57</ele>
        <time>2021-10-13T15:05:29Z</time>
      </trkpt>
      <trkpt lat="43.43641" lon="6.50762">
        <ele>56</ele>
        <time>2021-10-13T15:05:37Z</time>
      </trkpt>
      <trkpt lat="43.43641" lon="6.50769">
        <ele>55</ele>
        <time>2021-10-13T15:05:40Z</time>
      </trkpt>
      <trkpt lat="43.43641" lon="6.50774">
        <ele>53</ele>
        <time>2021-10-13T15:05:42Z</time>
      </trkpt>
      <trkpt lat="43.4364" lon="6.50784">
        <ele>49</ele>
        <time>2021-10-13T15:05:47Z</time>
      </trkpt>
      <trkpt lat="43.43636" lon="6.50794">
        <ele>48</ele>
        <time>2021-10-13T15:05:52Z</time>
      </trkpt>
      <trkpt lat="43.43634" lon="6.50798">
        <ele>48</ele>
        <time>2021-10-13T15:05:54Z</time>
      </trkpt>
      <trkpt lat="43.43631" lon="6.50804">
        <ele>49</ele>
        <time>2021-10-13T15:05:57Z</time>
      </trkpt>
      <trkpt lat="43.43628" lon="6.50807">
        <ele>49</ele>
        <time>2021-10-13T15:05:59Z</time>
      </trkpt>
      <trkpt lat="43.43625" lon="6.50813">
        <ele>49</ele>
        <time>2021-10-13T15:06:02Z</time>
      </trkpt>
      <trkpt lat="43.43633" lon="6.50828">
        <ele>48</ele>
        <time>2021-10-13T15:06:11Z</time>
      </trkpt>
      <trkpt lat="43.43647" lon="6.50861">
        <ele>51</ele>
        <time>2021-10-13T15:06:28Z</time>
      </trkpt>
      <trkpt lat="43.43648" lon="6.50867">
        <ele>51</ele>
        <time>2021-10-13T15:06:32Z</time>
      </trkpt>
      <trkpt lat="43.43647" lon="6.50877">
        <ele>51</ele>
        <time>2021-10-13T15:06:36Z</time>
      </trkpt>
      <trkpt lat="43.43646" lon="6.50881">
        <ele>51</ele>
        <time>2021-10-13T15:06:38Z</time>
      </trkpt>
      <trkpt lat="43.43645" lon="6.50885">
        <ele>51</ele>
        <time>2021-10-13T15:06:40Z</time>
      </trkpt>
      <trkpt lat="43.43642" lon="6.50894">
        <ele>50</ele>
        <time>2021-10-13T15:06:45Z</time>
      </trkpt>
      <trkpt lat="43.43641" lon="6.50902">
        <ele>50</ele>
        <time>2021-10-13T15:06:48Z</time>
      </trkpt>
      <trkpt lat="43.43642" lon="6.50918">
        <ele>50</ele>
        <time>2021-10-13T15:06:54Z</time>
      </trkpt>
      <trkpt lat="43.4365" lon="6.50939">
        <ele>49</ele>
        <time>2021-10-13T15:07:04Z</time>
      </trkpt>
      <trkpt lat="43.43652" lon="6.50952">
        <ele>49</ele>
        <time>2021-10-13T15:07:10Z</time>
      </trkpt>
      <trkpt lat="43.43653" lon="6.50965">
        <ele>49</ele>
        <time>2021-10-13T15:07:16Z</time>
      </trkpt>
      <trkpt lat="43.43658" lon="6.50983">
        <ele>49</ele>
        <time>2021-10-13T15:07:26Z</time>
      </trkpt>
      <trkpt lat="43.43663" lon="6.50996">
        <ele>48</ele>
        <time>2021-10-13T15:07:32Z</time>
      </trkpt>
      <trkpt lat="43.43668" lon="6.5101">
        <ele>48</ele>
        <time>2021-10-13T15:07:39Z</time>
      </trkpt>
      <trkpt lat="43.43669" lon="6.5102">
        <ele>47</ele>
        <time>2021-10-13T15:07:44Z</time>
      </trkpt>
      <trkpt lat="43.43669" lon="6.51025">
        <ele>47</ele>
        <time>2021-10-13T15:07:46Z</time>
      </trkpt>
      <trkpt lat="43.43666" lon="6.51029">
        <ele>46</ele>
        <time>2021-10-13T15:07:48Z</time>
      </trkpt>
      <trkpt lat="43.43659" lon="6.51032">
        <ele>44</ele>
        <time>2021-10-13T15:07:52Z</time>
      </trkpt>
      <trkpt lat="43.43652" lon="6.51032">
        <ele>43</ele>
        <time>2021-10-13T15:07:56Z</time>
      </trkpt>
      <trkpt lat="43.43644" lon="6.51032">
        <ele>43</ele>
        <time>2021-10-13T15:08:01Z</time>
      </trkpt>
      <trkpt lat="43.43631" lon="6.5103">
        <ele>41</ele>
        <time>2021-10-13T15:08:09Z</time>
      </trkpt>
      <trkpt lat="43.43622" lon="6.51024">
        <ele>38</ele>
        <time>2021-10-13T15:08:15Z</time>
      </trkpt>
      <trkpt lat="43.43618" lon="6.5102">
        <ele>38</ele>
        <time>2021-10-13T15:08:19Z</time>
      </trkpt>
      <trkpt lat="43.43614" lon="6.51019">
        <ele>36</ele>
        <time>2021-10-13T15:08:24Z</time>
      </trkpt>
      <trkpt lat="43.4361" lon="6.51014">
        <ele>33</ele>
        <time>2021-10-13T15:08:26Z</time>
      </trkpt>
      <trkpt lat="43.43605" lon="6.51012">
        <ele>32</ele>
        <time>2021-10-13T15:08:28Z</time>
      </trkpt>
      <trkpt lat="43.43581" lon="6.51013">
        <ele>37</ele>
        <time>2021-10-13T15:08:40Z</time>
      </trkpt>
      <trkpt lat="43.43573" lon="6.51018">
        <ele>37</ele>
        <time>2021-10-13T15:08:46Z</time>
      </trkpt>
      <trkpt lat="43.43551" lon="6.51035">
        <ele>32</ele>
        <time>2021-10-13T15:09:03Z</time>
      </trkpt>
      <trkpt lat="43.43538" lon="6.51044">
        <ele>30</ele>
        <time>2021-10-13T15:09:12Z</time>
      </trkpt>
      <trkpt lat="43.43531" lon="6.51051">
        <ele>29</ele>
        <time>2021-10-13T15:09:20Z</time>
      </trkpt>
      <trkpt lat="43.43524" lon="6.51064">
        <ele>28</ele>
        <time>2021-10-13T15:09:33Z</time>
      </trkpt>
      <trkpt lat="43.43523" lon="6.51066">
        <ele>26</ele>
        <time>2021-10-13T15:11:22Z</time>
      </trkpt>
      <trkpt lat="43.43522" lon="6.51069">
        <ele>27</ele>
        <time>2021-10-13T15:12:02Z</time>
      </trkpt>
      <trkpt lat="43.43521" lon="6.51069">
        <ele>26</ele>
        <time>2021-10-13T15:12:36Z</time>
      </trkpt>
      <trkpt lat="43.43526" lon="6.51069">
        <ele>25</ele>
        <time>2021-10-13T15:13:28Z</time>
      </trkpt>
      <trkpt lat="43.43528" lon="6.51066">
        <ele>21</ele>
        <time>2021-10-13T15:13:30Z</time>
      </trkpt>
      <trkpt lat="43.43532" lon="6.51075">
        <ele>12</ele>
        <time>2021-10-13T15:14:03Z</time>
      </trkpt>
      <trkpt lat="43.43536" lon="6.5108">
        <ele>12</ele>
        <time>2021-10-13T15:14:08Z</time>
      </trkpt>
      <trkpt lat="43.43537" lon="6.51089">
        <ele>11</ele>
        <time>2021-10-13T15:14:13Z</time>
      </trkpt>
      <trkpt lat="43.43542" lon="6.51092">
        <ele>11</ele>
        <time>2021-10-13T15:14:23Z</time>
      </trkpt>
      <trkpt lat="43.43546" lon="6.51096">
        <ele>11</ele>
        <time>2021-10-13T15:14:29Z</time>
      </trkpt>
      <trkpt lat="43.43547" lon="6.51103">
        <ele>10</ele>
        <time>2021-10-13T15:14:36Z</time>
      </trkpt>
      <trkpt lat="43.4355" lon="6.511">
        <ele>11</ele>
        <time>2021-10-13T15:14:50Z</time>
      </trkpt>
      <trkpt lat="43.43551" lon="6.51108">
        <ele>12</ele>
        <time>2021-10-13T15:14:59Z</time>
      </trkpt>
      <trkpt lat="43.43549" lon="6.51113">
        <ele>13</ele>
        <time>2021-10-13T15:15:03Z</time>
      </trkpt>
      <trkpt lat="43.43549" lon="6.51117">
        <ele>13</ele>
        <time>2021-10-13T15:15:07Z</time>
      </trkpt>
      <trkpt lat="43.4355" lon="6.5112">
        <ele>10</ele>
        <time>2021-10-13T15:15:24Z</time>
      </trkpt>
      <trkpt lat="43.43546" lon="6.51131">
        <ele>12</ele>
        <time>2021-10-13T15:16:00Z</time>
      </trkpt>
      <trkpt lat="43.43546" lon="6.51134">
        <ele>13</ele>
        <time>2021-10-13T15:16:04Z</time>
      </trkpt>
      <trkpt lat="43.43545" lon="6.5114">
        <ele>14</ele>
        <time>2021-10-13T15:16:11Z</time>
      </trkpt>
      <trkpt lat="43.43544" lon="6.5115">
        <ele>13</ele>
        <time>2021-10-13T15:16:20Z</time>
      </trkpt>
      <trkpt lat="43.43549" lon="6.51149">
        <ele>15</ele>
        <time>2021-10-13T15:16:42Z</time>
      </trkpt>
      <trkpt lat="43.43547" lon="6.51147">
        <ele>15</ele>
        <time>2021-10-13T15:16:52Z</time>
      </trkpt>
      <trkpt lat="43.43546" lon="6.51143">
        <ele>16</ele>
        <time>2021-10-13T15:16:58Z</time>
      </trkpt>
      <trkpt lat="43.43545" lon="6.5114">
        <ele>16</ele>
        <time>2021-10-13T15:17:01Z</time>
      </trkpt>
      <trkpt lat="43.43542" lon="6.51136">
        <ele>15</ele>
        <time>2021-10-13T15:17:25Z</time>
      </trkpt>
      <trkpt lat="43.43542" lon="6.51131">
        <ele>14</ele>
        <time>2021-10-13T15:17:28Z</time>
      </trkpt>
      <trkpt lat="43.43546" lon="6.51122">
        <ele>14</ele>
        <time>2021-10-13T15:17:52Z</time>
      </trkpt>
      <trkpt lat="43.43546" lon="6.51117">
        <ele>15</ele>
        <time>2021-10-13T15:17:55Z</time>
      </trkpt>
      <trkpt lat="43.43547" lon="6.51111">
        <ele>15</ele>
        <time>2021-10-13T15:17:58Z</time>
      </trkpt>
      <trkpt lat="43.43545" lon="6.51102">
        <ele>16</ele>
        <time>2021-10-13T15:18:13Z</time>
      </trkpt>
      <trkpt lat="43.43543" lon="6.51098">
        <ele>16</ele>
        <time>2021-10-13T15:18:15Z</time>
      </trkpt>
      <trkpt lat="43.43527" lon="6.51082">
        <ele>15</ele>
        <time>2021-10-13T15:18:33Z</time>
      </trkpt>
      <trkpt lat="43.43523" lon="6.51079">
        <ele>16</ele>
        <time>2021-10-13T15:18:41Z</time>
      </trkpt>
      <trkpt lat="43.4352" lon="6.51078">
        <ele>16</ele>
        <time>2021-10-13T15:19:15Z</time>
      </trkpt>
      <trkpt lat="43.43515" lon="6.51078">
        <ele>16</ele>
        <time>2021-10-13T15:19:18Z</time>
      </trkpt>
      <trkpt lat="43.43509" lon="6.51075">
        <ele>18</ele>
        <time>2021-10-13T15:19:24Z</time>
      </trkpt>
      <trkpt lat="43.43503" lon="6.51072">
        <ele>13</ele>
        <time>2021-10-13T15:19:33Z</time>
      </trkpt>
      <trkpt lat="43.43494" lon="6.5107">
        <ele>13</ele>
        <time>2021-10-13T15:19:45Z</time>
      </trkpt>
      <trkpt lat="43.43482" lon="6.51067">
        <ele>17</ele>
        <time>2021-10-13T15:19:51Z</time>
      </trkpt>
      <trkpt lat="43.43479" lon="6.51066">
        <ele>19</ele>
        <time>2021-10-13T15:19:54Z</time>
      </trkpt>
      <trkpt lat="43.43476" lon="6.51064">
        <ele>20</ele>
        <time>2021-10-13T15:19:59Z</time>
      </trkpt>
      <trkpt lat="43.43473" lon="6.51063">
        <ele>21</ele>
        <time>2021-10-13T15:20:01Z</time>
      </trkpt>
      <trkpt lat="43.4347" lon="6.51062">
        <ele>22</ele>
        <time>2021-10-13T15:20:05Z</time>
      </trkpt>
      <trkpt lat="43.43463" lon="6.51065">
        <ele>21</ele>
        <time>2021-10-13T15:20:07Z</time>
      </trkpt>
      <trkpt lat="43.4346" lon="6.51066">
        <ele>22</ele>
        <time>2021-10-13T15:20:10Z</time>
      </trkpt>
      <trkpt lat="43.43453" lon="6.51065">
        <ele>24</ele>
        <time>2021-10-13T15:20:25Z</time>
      </trkpt>
      <trkpt lat="43.4345" lon="6.51064">
        <ele>24</ele>
        <time>2021-10-13T15:20:27Z</time>
      </trkpt>
    </trkseg>
  </trk>
</gpx>